D83502 / EI-FHM 7700 Squawk Report (15th of September, 2019)

Aircraft B738 Reg No. EI-FHM Age 4 years old
Model 737 Jet engines 2 First flight 04-09-15
Registered 21-09-15 Rollout N/A Delivered 21-09-15
Construction No. 42070 Line No. 5583 Series 8JP
ADSHEX 4CA506 Airline name Norwegian Air International Owner Aercap Holdings N.V.
Airfield based Oslo-Gardermoen~Akershus~LN First tracked 2017-07-13 09:34:00
Time Lat Lon Altitude Heading Speed Vertical Rate
2019-09-15 14:03:29 GMT 55.958771 -3.346669 0 239 147 0
2019-09-15 14:03:22 GMT 55.958771 -3.346669 0 239 142 -768
2019-09-15 14:03:18 GMT 55.960167 -3.342505 75 239 143 -768
2019-09-15 14:03:11 GMT 55.962868 -3.334694 175 239 144 -960
2019-09-15 14:03:03 GMT 55.965611 -3.326712 300 239 147 -768
2019-09-15 14:02:59 GMT 55.966873 -3.322948 350 239 147 -896
2019-09-15 14:02:53 GMT 55.968887 -3.316956 500 240 144 -640
2019-09-15 14:02:50 GMT 55.970222 -3.312979 475 239 145 -640
2019-09-15 14:02:43 GMT 55.972549 -3.306219 550 240 143 -832
2019-09-15 14:02:40 GMT 55.973648 -3.302890 575 240 141 -768
2019-09-15 14:02:33 GMT 55.975807 -3.296242 675 239 139 -704
2019-09-15 14:02:30 GMT 55.977081 -3.292486 700 239 139 -768
2019-09-15 14:02:22 GMT 55.979439 -3.285685 800 240 139 -768
2019-09-15 14:02:19 GMT 55.980423 -3.282665 825 240 138 -704
2019-09-15 14:02:13 GMT 55.982712 -3.275674 925 240 139 -768
2019-09-15 14:02:09 GMT 55.983723 -3.272638 1,200 240 139 -768
2019-09-15 14:02:02 GMT 55.985954 -3.266029 1,050 240 143 -576
2019-09-15 14:01:59 GMT 55.987198 -3.262274 1,075 240 145 -704
2019-09-15 14:01:52 GMT 55.989540 -3.255215 1,175 239 148 -768
2019-09-15 14:01:49 GMT 55.990704 -3.251781 1,200 239 147 -768
2019-09-15 14:01:44 GMT 55.992615 -3.246288 1,275 240 148 -896
2019-09-15 14:01:41 GMT 55.994431 -3.240800 1,350 239 150 -896
2019-09-15 14:01:38 GMT 55.994431 -3.240800 1,350 239 150 -896
2019-09-15 14:01:31 GMT 55.996857 -3.233726 1,425 239 151 -896
2019-09-15 14:01:28 GMT 55.998138 -3.230064 1,500 239 155 -960
2019-09-15 14:01:21 GMT 56.000900 -3.221655 1,625 240 158 -896
2019-09-15 14:01:18 GMT 56.001877 -3.218822 1,650 239 162 -640
2019-09-15 14:01:12 GMT 56.004135 -3.212169 1,700 239 167 -704
2019-09-15 14:01:07 GMT 56.006241 -3.206010 1,750 239 169 -896
2019-09-15 14:01:03 GMT 56.007694 -3.201656 2,025 241 175 -320
2019-09-15 14:01:00 GMT 56.009045 -3.197708 1,875 239 170 -960
2019-09-15 14:00:57 GMT 56.010681 -3.192860 1,925 239 170 -832
2019-09-15 14:00:53 GMT 56.011932 -3.189297 2,000 239 170 -640
2019-09-15 14:00:46 GMT 56.014893 -3.180625 2,050 240 171 0
2019-09-15 14:00:41 GMT 56.016861 -3.174633 2,200 241 175 -192
2019-09-15 14:00:38 GMT 56.018005 -3.170971 2,200 241 175 -192
2019-09-15 14:00:35 GMT 56.019100 -3.167582 2,050 241 176 -576
2019-09-15 14:00:32 GMT 56.020340 -3.163813 2,075 241 178 -512
2019-09-15 14:00:28 GMT 56.022079 -3.158226 2,125 243 179 -576
2019-09-15 14:00:25 GMT 56.023010 -3.155050 2,150 245 179 -576
2019-09-15 14:00:22 GMT 56.024506 -3.149581 2,175 248 182 -512
2019-09-15 14:00:18 GMT 56.025852 -3.143549 2,225 252 185 -448
2019-09-15 14:00:15 GMT 56.026505 -3.140116 2,225 254 187 -384
2019-09-15 14:00:11 GMT 56.027386 -3.134451 2,250 255 192 -512
2019-09-15 14:00:07 GMT 56.028271 -3.128872 2,275 255 194 -704
2019-09-15 14:00:04 GMT 56.029129 -3.123863 2,325 257 195 -1024
2019-09-15 14:00:01 GMT 56.029716 -3.119345 2,375 263 195 -1600
2019-09-15 13:59:57 GMT 56.030228 -3.111961 2,500 274 194 -1536
2019-09-15 13:59:54 GMT 56.030182 -3.108959 2,550 278 194 -1152
2019-09-15 13:59:51 GMT 56.029762 -3.103552 2,650 289 197 -896
2019-09-15 13:59:47 GMT 56.028786 -3.097372 2,700 295 198 -832
2019-09-15 13:59:44 GMT 56.027760 -3.093081 2,725 300 199 -768
2019-09-15 13:59:40 GMT 56.025650 -3.086742 2,775 320 204 -704
2019-09-15 13:59:36 GMT 56.023430 -3.082008 2,800 320 204 -704
2019-09-15 13:59:33 GMT 56.021755 -3.079262 2,825 325 205 -768
2019-09-15 13:59:30 GMT 56.019333 -3.076172 2,925 334 208 -1088
2019-09-15 13:59:27 GMT 56.016399 -3.073254 2,950 342 209 -1280
2019-09-15 13:59:24 GMT 56.013515 -3.071280 3,000 346 211 -1280
2019-09-15 13:59:20 GMT 56.009995 -3.069597 3,075 348 211 -1152
2019-09-15 13:59:17 GMT 56.006763 -3.068447 3,175 349 212 -1088
2019-09-15 13:59:14 GMT 56.004250 -3.067503 3,200 349 212 -1088
2019-09-15 13:59:09 GMT 55.996857 -3.064853 3,325 349 212 -960
2019-09-15 13:59:03 GMT 55.993870 -3.063812 3,350 349 212 -1024
2019-09-15 13:58:59 GMT 55.990334 -3.062611 3,450 349 211 -1024
2019-09-15 13:58:56 GMT 55.983719 -3.060275 3,550 349 211 -640
2019-09-15 13:58:53 GMT 55.983719 -3.060275 3,550 348 211 -576
2019-09-15 13:58:50 GMT 55.980835 -3.059193 3,600 348 214 -640
2019-09-15 13:58:47 GMT 55.977390 -3.057804 3,625 348 214 -704
2019-09-15 13:58:43 GMT 55.973991 -3.056517 3,650 348 215 -768
2019-09-15 13:58:38 GMT 55.970173 -3.055058 3,700 348 216 -512
2019-09-15 13:58:35 GMT 55.966644 -3.053700 3,750 349 219 -64
2019-09-15 13:58:32 GMT 55.963898 -3.052618 3,750 349 219 -64
2019-09-15 13:58:29 GMT 55.961098 -3.051624 3,750 349 221 128
2019-09-15 13:58:26 GMT 55.957603 -3.050337 3,750 349 224 -64
2019-09-15 13:58:23 GMT 55.953648 -3.048878 3,750 348 225 -64
2019-09-15 13:58:19 GMT 55.949970 -3.047504 3,750 348 229 -64
2019-09-15 13:58:16 GMT 55.946339 -3.046131 3,750 349 232 64
2019-09-15 13:58:12 GMT 55.943115 -3.044877 3,750 349 233 0
2019-09-15 13:58:09 GMT 55.939957 -3.043712 3,725 349 238 64
2019-09-15 13:58:06 GMT 55.936615 -3.042464 3,725 349 240 -64
2019-09-15 13:58:03 GMT 55.928192 -3.039384 3,725 349 245 -384
2019-09-15 13:57:59 GMT 55.928192 -3.039384 3,750 349 246 -512
2019-09-15 13:57:55 GMT 55.924507 -3.037977 3,775 349 248 -832
2019-09-15 13:57:52 GMT 55.921921 -3.037054 3,800 349 249 -1024
2019-09-15 13:57:48 GMT 55.916637 -3.035145 3,925 349 248 -1664
2019-09-15 13:57:45 GMT 55.912903 -3.033808 4,000 349 249 -1472
2019-09-15 13:57:42 GMT 55.910568 -3.032892 4,050 349 247 -1344
2019-09-15 13:57:38 GMT 55.904861 -3.030767 4,150 349 248 -1088
2019-09-15 13:57:32 GMT 55.899170 -3.028648 4,300 349 249 -1600
2019-09-15 13:57:29 GMT 55.893951 -3.026733 4,350 349 250 -1664
2019-09-15 13:57:25 GMT 55.891502 -3.025789 4,425 349 250 -1600
2019-09-15 13:57:22 GMT 55.887497 -3.024330 4,475 349 249 -1472
2019-09-15 13:57:18 GMT 55.882874 -3.022738 4,675 349 250 -1472
2019-09-15 13:57:15 GMT 55.880356 -3.021823 4,750 349 253 -1088
2019-09-15 13:57:11 GMT 55.875256 -3.020039 4,775 349 252 -1408
2019-09-15 13:57:05 GMT 55.867996 -3.017495 4,900 349 255 -640
2019-09-15 13:57:01 GMT 55.863373 -3.015830 4,950 349 259 -960
2019-09-15 13:56:57 GMT 55.858448 -3.014116 5,025 349 259 -1536
2019-09-15 13:56:54 GMT 55.855747 -3.013172 5,025 349 259 -1536
2019-09-15 13:56:50 GMT 55.851105 -3.011419 5,175 349 257 -1024
2019-09-15 13:56:46 GMT 55.845108 -3.009338 5,250 349 259 -768
2019-09-15 13:56:42 GMT 55.841503 -3.008022 5,300 349 261 -448
2019-09-15 13:56:39 GMT 55.837234 -3.006509 5,325 349 261 -512
2019-09-15 13:56:36 GMT 55.833344 -3.005094 5,350 349 262 -1088
2019-09-15 13:56:33 GMT 55.827438 -3.002930 5,450 349 262 -1024
2019-09-15 13:56:27 GMT 55.823257 -3.001328 5,475 349 263 -960
2019-09-15 13:56:24 GMT 55.815762 -2.998581 5,600 349 263 -1408
2019-09-15 13:56:20 GMT 55.815762 -2.998581 5,650 349 262 -1600
2019-09-15 13:56:17 GMT 55.811852 -2.997122 7,125 347 275 -1216
2019-09-15 13:56:13 GMT 55.807114 -2.995439 5,800 349 261 -1536
2019-09-15 13:56:10 GMT 55.803085 -2.993941 5,925 349 261 -1280
2019-09-15 13:56:07 GMT 55.800491 -2.993088 5,975 349 261 -1216
2019-09-15 13:56:03 GMT 55.794937 -2.991028 6,025 349 262 -1216
2019-09-15 13:56:00 GMT 55.791367 -2.989826 6,125 349 263 -1792
2019-09-15 13:55:57 GMT 55.788387 -2.988710 6,200 349 264 -1856
2019-09-15 13:55:54 GMT 55.784454 -2.987366 6,275 349 264 -1856
2019-09-15 13:55:51 GMT 55.780754 -2.986050 6,400 349 265 -1856
2019-09-15 13:55:48 GMT 55.776657 -2.984505 6,450 349 265 -1728
2019-09-15 13:55:45 GMT 55.772461 -2.982955 6,600 349 267 -1600
2019-09-15 13:55:39 GMT 55.766144 -2.980624 6,750 348 268 -2048
2019-09-15 13:55:33 GMT 55.758179 -2.977378 6,925 347 269 -1728
2019-09-15 13:55:29 GMT 55.748932 -2.973550 7,150 345 295 -1280
2019-09-15 13:55:25 GMT 55.748932 -2.973550 7,175 347 275 -1216
2019-09-15 13:55:22 GMT 55.745373 -2.971973 7,200 347 276 -1152
2019-09-15 13:55:19 GMT 55.741650 -2.970428 7,225 347 279 -1024
2019-09-15 13:55:16 GMT 55.736755 -2.968223 7,300 345 295 -1280
2019-09-15 13:55:13 GMT 55.734386 -2.967167 7,350 346 283 -1024
2019-09-15 13:55:10 GMT 55.729546 -2.965021 7,425 346 287 -1152
2019-09-15 13:55:07 GMT 55.726318 -2.963562 7,450 346 289 -1280
2019-09-15 13:55:03 GMT 55.720516 -2.960815 7,575 345 293 -1280
2019-09-15 13:55:00 GMT 55.717907 -2.959614 7,675 345 294 -1280
2019-09-15 13:54:57 GMT 55.711487 -2.956571 7,725 345 296 -1280
2019-09-15 13:54:54 GMT 55.709530 -2.955580 7,750 345 297 -1344
2019-09-15 13:54:51 GMT 55.705524 -2.953606 7,775 345 299 -1408
2019-09-15 13:54:48 GMT 55.698078 -2.949829 7,925 345 303 -1408
2019-09-15 13:54:42 GMT 55.688023 -2.944765 8,075 345 307 -1280
2019-09-15 13:54:38 GMT 55.688023 -2.944765 8,125 345 308 -1216
2019-09-15 13:54:35 GMT 55.684063 -2.942791 8,225 345 311 -1152
2019-09-15 13:54:31 GMT 55.674057 -2.937813 8,300 345 316 -1280
2019-09-15 13:54:28 GMT 55.669876 -2.935763 8,350 345 316 -1344
2019-09-15 13:54:22 GMT 55.665024 -2.933435 8,450 345 319 -1664
2019-09-15 13:54:19 GMT 55.661362 -2.931602 8,575 345 322 -1920
2019-09-15 13:54:16 GMT 55.657333 -2.929604 8,625 344 323 -1984
2019-09-15 13:54:12 GMT 55.652481 -2.927107 8,725 344 325 -1920
2019-09-15 13:54:09 GMT 55.647987 -2.924852 8,825 344 327 -1920
2019-09-15 13:54:06 GMT 55.637325 -2.919445 9,025 344 332 -1984
2019-09-15 13:54:02 GMT 55.637325 -2.919445 9,100 344 333 -2048
2019-09-15 13:53:59 GMT 55.632763 -2.917042 9,175 344 335 -1984
2019-09-15 13:53:55 GMT 55.627716 -2.914373 9,275 344 337 -1920
2019-09-15 13:53:52 GMT 55.622475 -2.911634 9,450 344 341 -1920
2019-09-15 13:53:49 GMT 55.617508 -2.909047 9,450 344 341 -1920
2019-09-15 13:53:46 GMT 55.613113 -2.906716 9,650 344 345 -2112
2019-09-15 13:53:42 GMT 55.606880 -2.903395 9,750 344 347 -2240
2019-09-15 13:53:38 GMT 55.601807 -2.900807 9,800 344 348 -2240
2019-09-15 13:53:34 GMT 55.595287 -2.897472 10,100 344 351 -2688
2019-09-15 13:53:31 GMT 55.590591 -2.895064 10,175 345 353 -3200
2019-09-15 13:53:28 GMT 55.585747 -2.892580 10,300 345 355 -3392
2019-09-15 13:53:25 GMT 55.580532 -2.890005 10,525 345 355 -3456
2019-09-15 13:53:21 GMT 55.574017 -2.886829 10,750 346 357 -3904
2019-09-15 13:53:17 GMT 55.568893 -2.884512 10,900 346 356 -3968
2019-09-15 13:53:14 GMT 55.563496 -2.881937 11,900 345 359 -3840
2019-09-15 13:53:11 GMT 55.558048 -2.879534 11,400 346 357 -3264
2019-09-15 13:53:05 GMT 55.547340 -2.874641 11,775 345 359 -3136
2019-09-15 13:52:59 GMT 55.533142 -2.867603 12,175 345 359 -4224
2019-09-15 13:52:56 GMT 55.533142 -2.867603 12,325 345 359 -4160
2019-09-15 13:52:53 GMT 55.524811 -2.863655 12,475 345 359 -4032
2019-09-15 13:52:50 GMT 55.524811 -2.863655 12,600 345 360 -3776
2019-09-15 13:52:46 GMT 55.518852 -2.860651 12,825 343 361 -3392
2019-09-15 13:52:43 GMT 55.512222 -2.856778 13,075 326 352 -4416
2019-09-15 13:52:39 GMT 55.502701 -2.849371 13,575 331 356 -3840
2019-09-15 13:52:33 GMT 55.491711 -2.837391 13,725 299 343 -2816
2019-09-15 13:52:28 GMT 55.491711 -2.837391 13,950 323 350 -4352
2019-09-15 13:52:25 GMT 55.488266 -2.832670 14,025 319 347 -3968
2019-09-15 13:52:22 GMT 55.485100 -2.827950 14,325 317 346 -3840
2019-09-15 13:52:19 GMT 55.480537 -2.820396 14,625 312 343 -3648
2019-09-15 13:52:16 GMT 55.478256 -2.816105 14,675 311 343 -3584
2019-09-15 13:52:13 GMT 55.473835 -2.806664 14,875 307 342 -3392
2019-09-15 13:52:10 GMT 55.471554 -2.801342 14,950 306 342 -3264
2019-09-15 13:52:07 GMT 55.469009 -2.794606 15,175 301 343 -2816
2019-09-15 13:52:04 GMT 55.466904 -2.788030 15,325 295 343 -3072
2019-09-15 13:52:00 GMT 55.464020 -2.777460 15,525 285 343 -3456
2019-09-15 13:51:56 GMT 55.462189 -2.767057 15,675 283 343 -3264
2019-09-15 13:51:53 GMT 55.461136 -2.758817 15,900 280 344 -2944
2019-09-15 13:51:50 GMT 55.460403 -2.750744 15,950 279 345 -2880
2019-09-15 13:51:46 GMT 55.459496 -2.738256 16,225 278 347 -2816
2019-09-15 13:51:43 GMT 55.458939 -2.730352 16,325 278 347 -2688
2019-09-15 13:51:40 GMT 55.458115 -2.718867 16,525 278 349 -2496
2019-09-15 13:51:36 GMT 55.457542 -2.710447 16,650 278 351 -2304
2019-09-15 13:51:33 GMT 55.456833 -2.700806 16,725 278 351 -2304
2019-09-15 13:51:29 GMT 55.455231 -2.679166 16,950 278 355 -2496
2019-09-15 13:51:26 GMT 55.455231 -2.679166 17,050 278 355 -2496
2019-09-15 13:51:23 GMT 55.454933 -2.674913 17,150 278 356 -2624
2019-09-15 13:51:20 GMT 55.454002 -2.662554 17,225 278 356 -2688
2019-09-15 13:51:17 GMT 55.453304 -2.653027 17,450 278 359 -2624
2019-09-15 13:51:14 GMT 55.452988 -2.648704 18,275 278 364 -2880
2019-09-15 13:51:11 GMT 55.452164 -2.637967 17,550 278 360 -2688
2019-09-15 13:51:08 GMT 55.451569 -2.630144 17,775 278 361 -2816
2019-09-15 13:51:05 GMT 55.450928 -2.621155 17,950 278 361 -2752
2019-09-15 13:51:02 GMT 55.450188 -2.610970 18,075 278 362 -2688
2019-09-15 13:50:59 GMT 55.449554 -2.602511 18,275 278 363 -3136
2019-09-15 13:50:55 GMT 55.448227 -2.584284 18,400 278 363 -3008
2019-09-15 13:50:52 GMT 55.447403 -2.573131 18,500 278 363 -3136
2019-09-15 13:50:49 GMT 55.447403 -2.573131 18,875 278 364 -2944
2019-09-15 13:50:46 GMT 55.446304 -2.557900 18,800 277 370 -1024
2019-09-15 13:50:43 GMT 55.446304 -2.557900 19,075 277 365 -2944
2019-09-15 13:50:40 GMT 55.445671 -2.548485 19,125 277 365 -3008
2019-09-15 13:50:37 GMT 55.445156 -2.541361 19,800 277 365 -3072
2019-09-15 13:50:34 GMT 55.444427 -2.530434 19,375 277 365 -3392
2019-09-15 13:50:31 GMT 55.443577 -2.518366 19,500 277 365 -3456
2019-09-15 13:50:28 GMT 55.443283 -2.513688 19,700 277 365 -3072
2019-09-15 13:50:25 GMT 55.442783 -2.506547 19,825 277 366 -2688
2019-09-15 13:50:22 GMT 55.442001 -2.495351 19,900 277 367 -2176
2019-09-15 13:50:19 GMT 55.441341 -2.485241 20,100 277 370 -1152
2019-09-15 13:50:13 GMT 55.440037 -2.466764 20,200 277 371 -1024
2019-09-15 13:50:10 GMT 55.439526 -2.459273 20,275 277 372 -1024
2019-09-15 13:50:07 GMT 55.438828 -2.448786 20,325 277 372 -1024
2019-09-15 13:50:04 GMT 55.438362 -2.441878 20,325 277 372 -1024
2019-09-15 13:50:01 GMT 55.437710 -2.432556 20,950 277 372 -1024
2019-09-15 13:49:58 GMT 55.437103 -2.423859 20,475 277 372 -1024
2019-09-15 13:49:55 GMT 55.436501 -2.414579 20,525 277 372 -1024
2019-09-15 13:49:52 GMT 55.436050 -2.407945 20,525 277 372 -1024
2019-09-15 13:49:49 GMT 55.435337 -2.397433 20,625 277 373 -1088
2019-09-15 13:49:46 GMT 55.434731 -2.388111 20,700 277 373 -1088
2019-09-15 13:49:43 GMT 55.434032 -2.377292 20,800 277 374 -1088
2019-09-15 13:49:40 GMT 55.433567 -2.369718 20,750 277 377 -1088
2019-09-15 13:49:37 GMT 55.432846 -2.358910 20,800 277 375 -1088
2019-09-15 13:49:34 GMT 55.432159 -2.347681 20,875 277 375 -1088
2019-09-15 13:49:31 GMT 55.431793 -2.341946 20,900 277 376 -1088
2019-09-15 13:49:28 GMT 55.431335 -2.334676 20,950 277 376 -1024
2019-09-15 13:49:25 GMT 55.430679 -2.324940 21,000 277 377 -1088
2019-09-15 13:49:21 GMT 55.429562 -2.308211 21,075 277 378 -1088
2019-09-15 13:49:18 GMT 55.428635 -2.294204 21,150 277 378 -1024
2019-09-15 13:49:15 GMT 55.428635 -2.294204 21,275 277 379 -1024
2019-09-15 13:49:12 GMT 55.427948 -2.283783 21,225 277 378 -1024
2019-09-15 13:49:09 GMT 55.427353 -2.274655 21,350 277 379 -1024
2019-09-15 13:49:06 GMT 55.426758 -2.265769 21,325 277 379 -1024
2019-09-15 13:49:03 GMT 55.426117 -2.256359 21,400 277 379 -1024
2019-09-15 13:48:59 GMT 55.425373 -2.245040 21,450 277 379 -1024
2019-09-15 13:48:56 GMT 55.424927 -2.237980 21,550 277 380 -1088
2019-09-15 13:48:53 GMT 55.424164 -2.225980 21,575 277 380 -1088
2019-09-15 13:48:50 GMT 55.423416 -2.214957 21,600 277 380 -1088
2019-09-15 13:48:47 GMT 55.423046 -2.209167 21,625 277 381 -1088
2019-09-15 13:48:44 GMT 55.422501 -2.200578 21,700 277 381 -1152
2019-09-15 13:48:41 GMT 55.420856 -2.175626 21,800 277 382 -1728
2019-09-15 13:48:37 GMT 55.420856 -2.175626 21,850 277 380 -2048
2019-09-15 13:48:34 GMT 55.420349 -2.167538 21,925 277 381 -2048
2019-09-15 13:48:31 GMT 55.419662 -2.156794 23,000 276 384 -2112
2019-09-15 13:48:28 GMT 55.419205 -2.149120 22,075 276 380 -2112
2019-09-15 13:48:25 GMT 55.418625 -2.139338 22,250 276 378 -2112
2019-09-15 13:48:22 GMT 55.418159 -2.130432 22,325 276 378 -2112
2019-09-15 13:48:18 GMT 55.417461 -2.118863 22,475 276 379 -2048
2019-09-15 13:48:15 GMT 55.416367 -2.099520 22,800 276 381 -2048
2019-09-15 13:48:12 GMT 55.416367 -2.099520 22,650 276 381 -2112
2019-09-15 13:48:09 GMT 55.415726 -2.088453 22,725 276 381 -2048
2019-09-15 13:48:06 GMT 55.415405 -2.082555 22,850 276 381 -2048
2019-09-15 13:48:03 GMT 55.414627 -2.069307 22,925 276 382 -2048
2019-09-15 13:48:00 GMT 55.414307 -2.064056 23,050 276 383 -2048
2019-09-15 13:47:57 GMT 55.413780 -2.054776 23,125 276 384 -2112
2019-09-15 13:47:54 GMT 55.413254 -2.045477 23,175 276 385 -2176
2019-09-15 13:47:51 GMT 55.412712 -2.035217 23,300 276 386 -2624
2019-09-15 13:47:48 GMT 55.411743 -2.017688 23,625 276 389 -3008
2019-09-15 13:47:45 GMT 55.411240 -2.008559 23,675 276 389 -3008
2019-09-15 13:47:42 GMT 55.411240 -2.008559 23,825 276 390 -2944
2019-09-15 13:47:39 GMT 55.410618 -1.996932 23,875 276 390 -2944
2019-09-15 13:47:36 GMT 55.410244 -1.989274 24,075 276 392 -3200
2019-09-15 13:47:33 GMT 55.409500 -1.975708 24,225 276 392 -3200
2019-09-15 13:47:30 GMT 55.409271 -1.971238 24,625 276 393 -4736
2019-09-15 13:47:27 GMT 55.407963 -1.946744 24,575 276 394 -3136
2019-09-15 13:47:21 GMT 55.407669 -1.941672 24,800 276 395 -3008
2019-09-15 13:47:18 GMT 55.406616 -1.922446 25,175 276 395 -3776
2019-09-15 13:47:15 GMT 55.405975 -1.910975 25,175 276 395 -4352
2019-09-15 13:47:12 GMT 55.405975 -1.910975 25,350 276 394 -4672
2019-09-15 13:47:09 GMT 55.404877 -1.890618 25,625 276 393 -4672
2019-09-15 13:47:06 GMT 55.404877 -1.890618 25,825 276 392 -4480
2019-09-15 13:47:03 GMT 55.404518 -1.883906 25,975 276 391 -4224
2019-09-15 13:47:00 GMT 55.404007 -1.874750 26,550 276 393 -1920
2019-09-15 13:46:57 GMT 55.402843 -1.852944 26,450 276 392 -2560
2019-09-15 13:46:54 GMT 55.402843 -1.852944 26,550 276 392 -2112
2019-09-15 13:46:51 GMT 55.402191 -1.841542 26,725 276 393 -1664
2019-09-15 13:46:48 GMT 55.401810 -1.834151 26,750 276 393 -1728
2019-09-15 13:46:45 GMT 55.401169 -1.823407 26,800 276 393 -1920
2019-09-15 13:46:42 GMT 55.400749 -1.815407 26,875 276 393 -1984
2019-09-15 13:46:39 GMT 55.400375 -1.809082 27,000 276 393 -1920
2019-09-15 13:46:36 GMT 55.399658 -1.796749 27,050 276 393 -1920
2019-09-15 13:46:33 GMT 55.399258 -1.790022 27,175 276 391 -1920
2019-09-15 13:46:30 GMT 55.397964 -1.767345 27,450 276 389 -1920
2019-09-15 13:46:26 GMT 55.397964 -1.767345 27,500 276 387 -1984
2019-09-15 13:46:23 GMT 55.397324 -1.756035 27,525 276 387 -1920
2019-09-15 13:46:19 GMT 55.396790 -1.746660 27,625 276 386 -1984
2019-09-15 13:46:15 GMT 55.395493 -1.722915 27,850 276 385 -2368
2019-09-15 13:46:09 GMT 55.394093 -1.697471 28,125 276 384 -2432
2019-09-15 13:46:05 GMT 55.394093 -1.697471 28,225 276 383 -2432
2019-09-15 13:46:02 GMT 55.393799 -1.691571 28,300 276 383 -2432
2019-09-15 13:45:59 GMT 55.393158 -1.680100 28,550 276 381 -2496
2019-09-15 13:45:56 GMT 55.392609 -1.670487 28,550 276 381 -2496
2019-09-15 13:45:53 GMT 55.392151 -1.662813 28,625 276 380 -2496
2019-09-15 13:45:47 GMT 55.391296 -1.647533 28,850 276 377 -2496
2019-09-15 13:45:44 GMT 55.390549 -1.633812 29,125 276 375 -2560
2019-09-15 13:45:41 GMT 55.390228 -1.628319 29,150 276 373 -2560
2019-09-15 13:45:38 GMT 55.389084 -1.608124 29,375 276 370 -2560
2019-09-15 13:45:35 GMT 55.389084 -1.608124 29,450 276 369 -2560
2019-09-15 13:45:32 GMT 55.388580 -1.600046 30,100 276 365 -2624
2019-09-15 13:45:29 GMT 55.388084 -1.591353 31,175 276 366 -2624
2019-09-15 13:45:26 GMT 55.387482 -1.580700 29,775 276 363 -2688
2019-09-15 13:45:22 GMT 55.386841 -1.569833 29,975 276 360 -2752
2019-09-15 13:45:19 GMT 55.386337 -1.561351 30,150 276 358 -2880
2019-09-15 13:45:16 GMT 55.385479 -1.546908 30,375 276 357 -3200
2019-09-15 13:45:13 GMT 55.385330 -1.543983 30,700 276 357 -3136
2019-09-15 13:45:10 GMT 55.384735 -1.534174 30,450 276 357 -3456
2019-09-15 13:45:06 GMT 55.383453 -1.511993 30,850 276 357 -2176
2019-09-15 13:45:03 GMT 55.383453 -1.511993 30,875 276 357 -1920
2019-09-15 13:45:00 GMT 55.382629 -1.497857 31,200 276 359 -1472
2019-09-15 13:44:57 GMT 55.382629 -1.497857 31,025 276 359 -1408
2019-09-15 13:44:54 GMT 55.382126 -1.489455 31,150 276 359 -1472
2019-09-15 13:44:51 GMT 55.381428 -1.477578 31,200 276 359 -1472
2019-09-15 13:44:48 GMT 55.381073 -1.471441 31,250 276 358 -1536
2019-09-15 13:44:45 GMT 55.380589 -1.463346 31,900 276 358 -1536
2019-09-15 13:44:42 GMT 55.380112 -1.455527 31,375 277 359 -1472
2019-09-15 13:44:39 GMT 55.379608 -1.446560 31,550 277 359 -1472
2019-09-15 13:44:36 GMT 55.379101 -1.437877 31,575 277 359 -1472
2019-09-15 13:44:33 GMT 55.378590 -1.429471 31,550 277 359 -1472
2019-09-15 13:44:30 GMT 55.377892 -1.418485 31,700 276 358 -1472
2019-09-15 13:44:27 GMT 55.377472 -1.411327 31,825 276 357 -1472
2019-09-15 13:44:24 GMT 55.376774 -1.399758 31,825 276 357 -1472
2019-09-15 13:44:21 GMT 55.376495 -1.394537 31,900 276 358 -1472
2019-09-15 13:44:18 GMT 55.375980 -1.385859 31,950 276 358 -1472
2019-09-15 13:44:15 GMT 55.375423 -1.376620 32,000 276 358 -1472
2019-09-15 13:44:12 GMT 55.374939 -1.368848 32,225 276 357 -1536
2019-09-15 13:44:09 GMT 55.374397 -1.359308 32,200 276 357 -1536
2019-09-15 13:44:06 GMT 55.373291 -1.341221 32,325 276 356 -1536
2019-09-15 13:44:03 GMT 55.373291 -1.341221 32,375 276 355 -1536
2019-09-15 13:44:00 GMT 55.372742 -1.331688 32,400 276 355 -1536
2019-09-15 13:43:57 GMT 55.372192 -1.322802 32,525 276 355 -1472
2019-09-15 13:43:54 GMT 55.371883 -1.317361 32,525 276 355 -1472
2019-09-15 13:43:51 GMT 55.371281 -1.307040 32,600 276 354 -1472
2019-09-15 13:43:48 GMT 55.370728 -1.298487 32,675 276 354 -1472
2019-09-15 13:43:45 GMT 55.370396 -1.292475 32,725 277 353 -1472
2019-09-15 13:43:42 GMT 55.369789 -1.282487 32,900 277 353 -1472
2019-09-15 13:43:39 GMT 55.369186 -1.272250 32,900 277 353 -1472
2019-09-15 13:43:36 GMT 55.368576 -1.262539 32,975 277 353 -1472
2019-09-15 13:43:32 GMT 55.367462 -1.244368 33,100 277 354 -1472
2019-09-15 13:43:29 GMT 55.367462 -1.244368 33,150 277 352 -1472
2019-09-15 13:43:26 GMT 55.366856 -1.234381 33,300 277 353 -1472
2019-09-15 13:43:23 GMT 55.366440 -1.227306 33,275 277 353 -1472
2019-09-15 13:43:20 GMT 55.365925 -1.218983 34,475 277 348 -1472
2019-09-15 13:43:17 GMT 55.365280 -1.208254 34,475 277 348 -1472
2019-09-15 13:43:14 GMT 55.364777 -1.200579 33,550 277 352 -1472
2019-09-15 13:43:11 GMT 55.364346 -1.193182 33,550 277 350 -1472
2019-09-15 13:43:08 GMT 55.363861 -1.185554 34,150 277 350 -1472
2019-09-15 13:43:04 GMT 55.363129 -1.173356 33,750 277 350 -1472
2019-09-15 13:43:01 GMT 55.362579 -1.164632 33,825 277 350 -1472
2019-09-15 13:42:58 GMT 55.362030 -1.155261 33,850 277 350 -1408
2019-09-15 13:42:54 GMT 55.360794 -1.135227 34,000 277 350 -1472
2019-09-15 13:42:51 GMT 55.360794 -1.135227 34,050 277 350 -1472
2019-09-15 13:42:48 GMT 55.360336 -1.128199 34,125 277 350 -1472
2019-09-15 13:42:45 GMT 55.359875 -1.120356 34,175 277 350 -1408
2019-09-15 13:42:42 GMT 55.359364 -1.112449 34,250 277 350 -1472
2019-09-15 13:42:39 GMT 55.358852 -1.104292 34,275 277 350 -1472
2019-09-15 13:42:36 GMT 55.358150 -1.092973 34,425 277 350 -1472
2019-09-15 13:42:33 GMT 55.357639 -1.084817 34,475 277 349 -1408
2019-09-15 13:42:30 GMT 55.357178 -1.077549 34,525 277 349 -1472
2019-09-15 13:42:27 GMT 55.356617 -1.068587 34,625 277 348 -1472
2019-09-15 13:42:23 GMT 55.355869 -1.056768 34,750 277 347 -1472
2019-09-15 13:42:20 GMT 55.355438 -1.049517 34,825 277 347 -1472
2019-09-15 13:42:16 GMT 55.354149 -1.028803 35,800 272 356 -1536
2019-09-15 13:42:12 GMT 55.354149 -1.028803 35,050 277 347 -1472
2019-09-15 13:42:09 GMT 55.353588 -1.020147 35,150 277 347 -1408
2019-09-15 13:42:06 GMT 55.352966 -1.010338 35,100 277 347 -1472
2019-09-15 13:42:02 GMT 55.351776 -0.991112 35,475 277 347 -1408
2019-09-15 13:41:59 GMT 55.351776 -0.991112 35,275 277 347 -1408
2019-09-15 13:41:54 GMT 55.350891 -0.977117 35,350 277 347 -1408
2019-09-15 13:41:51 GMT 55.349632 -0.957309 35,500 277 347 -1472
2019-09-15 13:41:48 GMT 55.349632 -0.957309 35,550 277 348 -1472
2019-09-15 13:41:42 GMT 55.348701 -0.943076 35,675 277 348 -1472
2019-09-15 13:41:38 GMT 55.348206 -0.934646 35,775 277 349 -1472
2019-09-15 13:41:35 GMT 55.346832 -0.913319 35,900 277 352 -1472
2019-09-15 13:41:31 GMT 55.346832 -0.913319 36,000 277 350 -1472
2019-09-15 13:41:28 GMT 55.346375 -0.905483 36,075 277 350 -1472
2019-09-15 13:41:25 GMT 55.345688 -0.894739 36,100 277 351 -1472
2019-09-15 13:41:22 GMT 55.345211 -0.886896 36,175 277 351 -1472
2019-09-15 13:41:19 GMT 55.344559 -0.876992 36,250 277 352 -1472
2019-09-15 13:41:16 GMT 55.343582 -0.861457 36,375 277 352 -1472
2019-09-15 13:41:13 GMT 55.342930 -0.851274 36,400 277 352 -1472
2019-09-15 13:41:10 GMT 55.342930 -0.851274 36,475 277 353 -1408
2019-09-15 13:41:07 GMT 55.342621 -0.846432 36,650 277 353 -1472
2019-09-15 13:41:02 GMT 55.341068 -0.822060 36,725 277 353 -1472
2019-09-15 13:40:59 GMT 55.341068 -0.822060 36,775 268 356 -1536
2019-09-15 13:40:56 GMT 55.340042 -0.806413 36,825 277 353 -1472
2019-09-15 13:40:53 GMT 55.340042 -0.806413 36,900 277 353 -1472
2019-09-15 13:40:50 GMT 55.339394 -0.796758 36,975 277 353 -1472
2019-09-15 13:40:47 GMT 55.338867 -0.788269 37,375 268 356 -1536
2019-09-15 13:40:44 GMT 55.338226 -0.778614 37,100 277 353 -1472
2019-09-15 13:40:41 GMT 55.337128 -0.762419 37,200 277 353 -1472
2019-09-15 13:40:38 GMT 55.336597 -0.754727 37,400 276 354 -1472
2019-09-15 13:40:32 GMT 55.335983 -0.745939 37,375 277 355 -1472
2019-09-15 13:40:29 GMT 55.335388 -0.735585 37,500 274 355 -1472
2019-09-15 13:40:25 GMT 55.334976 -0.725582 37,600 272 356 -1536
2019-09-15 13:40:21 GMT 55.334736 -0.715776 37,675 257 359 64
2019-09-15 13:40:18 GMT 55.334736 -0.704207 37,725 269 356 -1536
2019-09-15 13:40:15 GMT 55.334831 -0.697049 37,825 266 357 -1216
2019-09-15 13:40:12 GMT 55.335110 -0.688976 37,875 265 356 -1088
2019-09-15 13:40:09 GMT 55.335899 -0.674244 37,950 263 357 -384
2019-09-15 13:40:06 GMT 55.336086 -0.671414 38,000 258 358 0
2019-09-15 13:40:00 GMT 55.338089 -0.650524 38,000 258 358 0
2019-09-15 13:39:57 GMT 55.338776 -0.645124 37,975 256 359 64
2019-09-15 13:39:54 GMT 55.340332 -0.634622 37,975 255 361 0
2019-09-15 13:39:51 GMT 55.341431 -0.627594 37,975 255 361 0
2019-09-15 13:39:47 GMT 55.343033 -0.617496 38,000 255 361 0
2019-09-15 13:39:44 GMT 55.344189 -0.610490 38,000 255 361 0
2019-09-15 13:39:41 GMT 55.345688 -0.600855 38,000 255 360 64
2019-09-15 13:39:38 GMT 55.347027 -0.592429 38,000 255 360 0
2019-09-15 13:39:35 GMT 55.348389 -0.584053 38,000 255 360 0
2019-09-15 13:39:32 GMT 55.349670 -0.575894 38,000 255 360 0
2019-09-15 13:39:29 GMT 55.352463 -0.558445 37,975 255 360 0
2019-09-15 13:39:26 GMT 55.352463 -0.558445 38,000 255 360 0
2019-09-15 13:39:23 GMT 55.355255 -0.540754 38,000 255 360 0
2019-09-15 13:39:20 GMT 55.355255 -0.540754 38,000 255 360 0
2019-09-15 13:39:17 GMT 55.356567 -0.532338 38,000 255 360 0
2019-09-15 13:39:14 GMT 55.357681 -0.525324 38,000 255 360 0
2019-09-15 13:39:11 GMT 55.359329 -0.515226 38,000 255 359 0
2019-09-15 13:39:08 GMT 55.360340 -0.508700 38,000 255 360 0
2019-09-15 13:39:05 GMT 55.361572 -0.500847 38,000 255 359 0
2019-09-15 13:39:02 GMT 55.363174 -0.490750 38,000 255 359 64
2019-09-15 13:38:59 GMT 55.364529 -0.482400 37,975 255 359 0
2019-09-15 13:38:56 GMT 55.365788 -0.474493 38,000 255 359 0
2019-09-15 13:38:53 GMT 55.367043 -0.466420 38,000 255 359 0
2019-09-15 13:38:50 GMT 55.368671 -0.456266 38,000 255 359 0
2019-09-15 13:38:47 GMT 55.369766 -0.449309 38,000 255 359 0
2019-09-15 13:38:44 GMT 55.371326 -0.439453 38,000 255 359 0
2019-09-15 13:38:41 GMT 55.373886 -0.423223 38,000 255 359 64
2019-09-15 13:38:35 GMT 55.375626 -0.412310 38,000 255 359 64
2019-09-15 13:38:32 GMT 55.377796 -0.398587 37,975 255 359 0
2019-09-15 13:38:29 GMT 55.377796 -0.398587 37,975 255 359 0
2019-09-15 13:38:26 GMT 55.379471 -0.388237 37,975 255 359 0
2019-09-15 13:38:23 GMT 55.380405 -0.382358 37,975 255 358 0
2019-09-15 13:38:20 GMT 55.381660 -0.374201 37,975 255 358 0
2019-09-15 13:38:14 GMT 55.384453 -0.356556 38,000 255 358 -64
2019-09-15 13:38:11 GMT 55.387207 -0.338880 38,000 255 358 -64
2019-09-15 13:38:08 GMT 55.387207 -0.338880 38,000 255 358 0
2019-09-15 13:38:05 GMT 55.388580 -0.330155 38,000 255 358 0
2019-09-15 13:38:02 GMT 55.389862 -0.321996 38,000 255 358 0
2019-09-15 13:37:58 GMT 55.393299 -0.299877 38,000 255 358 0
2019-09-15 13:37:54 GMT 55.393299 -0.299877 38,000 255 358 64
2019-09-15 13:37:47 GMT 55.396511 -0.279402 37,975 255 358 0
2019-09-15 13:37:44 GMT 55.398697 -0.265449 37,975 255 358 0
2019-09-15 13:37:41 GMT 55.398697 -0.265449 37,975 255 358 0
2019-09-15 13:37:38 GMT 55.400253 -0.255351 38,000 255 358 0
2019-09-15 13:37:35 GMT 55.401726 -0.245777 38,000 255 358 0
2019-09-15 13:37:32 GMT 55.402981 -0.237621 38,000 255 358 0
2019-09-15 13:37:29 GMT 55.404373 -0.228693 38,000 255 358 0
2019-09-15 13:37:26 GMT 55.405403 -0.221974 38,000 255 358 0
2019-09-15 13:37:23 GMT 55.406754 -0.213235 38,000 255 358 0
2019-09-15 13:37:20 GMT 55.408524 -0.202082 38,000 255 358 0
2019-09-15 13:37:17 GMT 55.409409 -0.196138 38,000 255 358 0
2019-09-15 13:37:14 GMT 55.410736 -0.187495 38,000 255 358 0
2019-09-15 13:37:11 GMT 55.411736 -0.181025 38,000 255 358 0
2019-09-15 13:37:08 GMT 55.413528 -0.169561 38,000 255 357 0
2019-09-15 13:37:02 GMT 55.416294 -0.151645 38,000 255 357 64
2019-09-15 13:36:56 GMT 55.418289 -0.139026 38,000 255 357 64
2019-09-15 13:36:53 GMT 55.419743 -0.129506 37,975 255 357 64
2019-09-15 13:36:50 GMT 55.420998 -0.121349 37,975 255 357 0
2019-09-15 13:36:47 GMT 55.422256 -0.113276 37,975 255 357 0
2019-09-15 13:36:44 GMT 55.423977 -0.102040 37,975 255 357 0
2019-09-15 13:36:40 GMT 55.425293 -0.093626 38,000 255 357 0
2019-09-15 13:36:35 GMT 55.427700 -0.078236 38,000 255 357 0
2019-09-15 13:36:31 GMT 55.429424 -0.067083 38,000 255 357 0
2019-09-15 13:36:28 GMT 55.430832 -0.058082 38,000 255 357 0
2019-09-15 13:36:25 GMT 55.433289 -0.042197 38,000 255 356 0
2019-09-15 13:36:22 GMT 55.433289 -0.042197 38,000 255 357 0
2019-09-15 13:36:19 GMT 55.435802 -0.026217 38,000 255 357 0
2019-09-15 13:36:16 GMT 55.435802 -0.026217 38,000 255 356 0
2019-09-15 13:36:13 GMT 55.437756 -0.013650 38,000 255 356 0
2019-09-15 13:36:10 GMT 55.438431 -0.009209 38,000 255 356 0
2019-09-15 13:36:07 GMT 55.439758 -0.000832 38,000 255 356 0
2019-09-15 13:36:04 GMT 55.442364 0.016230 38,000 255 356 0
2019-09-15 13:36:01 GMT 55.442364 0.016230 38,000 255 356 0
2019-09-15 13:35:54 GMT 55.445343 0.035456 38,000 255 356 0
2019-09-15 13:35:51 GMT 55.447021 0.046349 38,000 255 356 0
2019-09-15 13:35:44 GMT 55.449627 0.063086 38,000 255 355 0
2019-09-15 13:35:41 GMT 55.451164 0.073128 38,000 256 356 0
2019-09-15 13:35:38 GMT 55.452301 0.080400 38,000 255 356 0
2019-09-15 13:35:35 GMT 55.453995 0.091553 38,000 255 356 0
2019-09-15 13:35:32 GMT 55.455002 0.098211 38,000 256 356 0
2019-09-15 13:35:29 GMT 55.456005 0.104628 38,000 256 356 64
2019-09-15 13:35:26 GMT 55.459076 0.125011 38,000 256 356 0
2019-09-15 13:35:23 GMT 55.459076 0.125011 38,000 256 356 0
2019-09-15 13:35:19 GMT 55.460495 0.134250 38,000 256 356 0
2019-09-15 13:35:16 GMT 55.461639 0.141740 38,000 256 356 0
2019-09-15 13:35:13 GMT 55.462921 0.150396 38,000 256 356 0
2019-09-15 13:35:09 GMT 55.464844 0.163214 38,000 256 356 0
2019-09-15 13:35:06 GMT 55.465988 0.170787 38,000 256 354 0
2019-09-15 13:35:03 GMT 55.466995 0.177446 38,000 256 354 0
2019-09-15 13:35:00 GMT 55.468666 0.188313 38,000 256 354 64
2019-09-15 13:34:54 GMT 55.470886 0.203081 38,000 255 355 64
2019-09-15 13:34:51 GMT 55.471985 0.210322 37,975 256 355 0
2019-09-15 13:34:48 GMT 55.473495 0.220392 37,975 255 355 0
2019-09-15 13:34:45 GMT 55.475044 0.230455 37,975 255 355 0
2019-09-15 13:34:41 GMT 55.476288 0.238786 38,000 255 355 0
2019-09-15 13:34:38 GMT 55.477753 0.248274 38,000 255 355 0
2019-09-15 13:34:35 GMT 55.478943 0.256348 38,000 255 355 0
2019-09-15 13:34:31 GMT 55.480396 0.265818 37,975 256 354 0
2019-09-15 13:34:28 GMT 55.482166 0.277576 38,000 256 354 0
2019-09-15 13:34:25 GMT 55.484447 0.292597 38,000 256 355 0
2019-09-15 13:34:19 GMT 55.485855 0.302041 38,000 256 355 64
2019-09-15 13:34:16 GMT 55.488556 0.319935 37,975 256 355 64
2019-09-15 13:34:12 GMT 55.488556 0.319935 37,975 256 355 64
2019-09-15 13:34:09 GMT 55.489929 0.328841 37,975 256 355 0
2019-09-15 13:34:06 GMT 55.490967 0.335855 37,975 256 355 0
2019-09-15 13:34:03 GMT 55.492584 0.346735 37,975 256 355 0
2019-09-15 13:34:00 GMT 55.495102 0.363464 37,975 256 355 0
2019-09-15 13:33:56 GMT 55.496521 0.373036 38,000 256 355 0
2019-09-15 13:33:53 GMT 55.496521 0.373036 37,975 256 355 0
2019-09-15 13:33:50 GMT 55.498043 0.383062 38,000 256 355 0
2019-09-15 13:33:46 GMT 55.499393 0.392246 38,000 256 355 0
2019-09-15 13:33:42 GMT 55.501144 0.403748 38,000 256 355 0
2019-09-15 13:33:39 GMT 55.502419 0.412331 38,000 256 355 0
2019-09-15 13:33:36 GMT 55.503479 0.419395 38,000 256 354 0
2019-09-15 13:33:33 GMT 55.504837 0.428295 37,975 256 354 64
2019-09-15 13:33:30 GMT 55.507782 0.447859 38,000 256 354 0
2019-09-15 13:33:27 GMT 55.507782 0.447859 38,000 256 354 0
2019-09-15 13:33:24 GMT 55.508469 0.452585 38,000 256 354 0
2019-09-15 13:33:21 GMT 55.510712 0.467585 38,000 256 354 0
2019-09-15 13:33:18 GMT 55.511356 0.471811 38,000 256 354 0
2019-09-15 13:33:15 GMT 55.512222 0.477656 38,000 256 354 0
2019-09-15 13:33:12 GMT 55.513683 0.487432 38,000 256 354 64
2019-09-15 13:33:08 GMT 55.515686 0.500822 37,975 256 354 64
2019-09-15 13:33:02 GMT 55.518059 0.516443 37,975 256 354 64
2019-09-15 13:32:59 GMT 55.519089 0.523349 37,975 256 354 0
2019-09-15 13:32:55 GMT 55.520805 0.534811 37,975 256 354 0
2019-09-15 13:32:52 GMT 55.522064 0.543407 37,975 256 354 0
2019-09-15 13:32:48 GMT 55.525043 0.563478 38,000 256 354 0
2019-09-15 13:32:45 GMT 55.525043 0.563478 38,000 256 354 0
2019-09-15 13:32:41 GMT 55.526459 0.572954 38,000 256 354 0
2019-09-15 13:32:37 GMT 55.528160 0.584421 38,000 256 354 0
2019-09-15 13:32:34 GMT 55.529388 0.592762 38,000 256 354 0
2019-09-15 13:32:31 GMT 55.530807 0.602251 38,000 256 354 0
2019-09-15 13:32:28 GMT 55.531933 0.609741 38,000 256 354 0
2019-09-15 13:32:24 GMT 55.534927 0.630133 38,000 256 354 0
2019-09-15 13:32:21 GMT 55.536076 0.637636 38,000 256 353 0
2019-09-15 13:32:18 GMT 55.536076 0.637636 38,000 256 354 0
2019-09-15 13:32:14 GMT 55.539192 0.658751 38,000 256 353 0
2019-09-15 13:32:08 GMT 55.540329 0.666587 38,000 256 353 0
2019-09-15 13:32:04 GMT 55.541885 0.677157 38,000 256 353 0
2019-09-15 13:32:01 GMT 55.543442 0.687478 38,000 256 353 0
2019-09-15 13:31:55 GMT 55.545292 0.700293 38,000 256 353 0
2019-09-15 13:31:52 GMT 55.546692 0.709783 38,000 256 353 0
2019-09-15 13:31:49 GMT 55.547806 0.717545 38,000 256 353 0
2019-09-15 13:31:46 GMT 55.549297 0.727587 38,000 256 353 0
2019-09-15 13:31:43 GMT 55.550552 0.736170 38,000 256 353 0
2019-09-15 13:31:40 GMT 55.551773 0.744573 38,000 256 353 0
2019-09-15 13:31:37 GMT 55.552975 0.752907 38,000 256 353 0
2019-09-15 13:31:34 GMT 55.553833 0.758722 38,000 256 353 0
2019-09-15 13:31:31 GMT 55.555756 0.771790 38,000 256 353 0
2019-09-15 13:31:25 GMT 55.557861 0.786022 38,000 256 353 0
2019-09-15 13:31:21 GMT 55.559555 0.797674 38,000 256 353 0
2019-09-15 13:31:18 GMT 55.560562 0.804416 38,000 256 353 0
2019-09-15 13:31:14 GMT 55.562050 0.814705 38,000 256 353 0
2019-09-15 13:31:11 GMT 55.563259 0.822773 38,000 256 353 0
2019-09-15 13:31:08 GMT 55.566101 0.842202 38,000 256 353 64
2019-09-15 13:31:05 GMT 55.566101 0.842202 38,000 256 353 64
2019-09-15 13:31:00 GMT 55.567749 0.853355 38,000 256 353 0
2019-09-15 13:30:57 GMT 55.569305 0.863925 37,975 256 353 0
2019-09-15 13:30:53 GMT 55.570755 0.873928 37,975 256 353 0
2019-09-15 13:30:50 GMT 55.572189 0.883650 37,975 256 353 0
2019-09-15 13:30:47 GMT 55.573597 0.893068 38,000 256 353 0
2019-09-15 13:30:44 GMT 55.574570 0.899797 38,000 256 353 0
2019-09-15 13:30:41 GMT 55.576218 0.910950 38,000 256 353 0
2019-09-15 13:30:35 GMT 55.578278 0.925099 38,000 256 353 0
2019-09-15 13:30:32 GMT 55.581554 0.947657 38,000 256 353 0
2019-09-15 13:30:28 GMT 55.581554 0.947657 38,000 256 353 0
2019-09-15 13:30:25 GMT 55.582256 0.952635 38,000 256 351 0
2019-09-15 13:30:22 GMT 55.584732 0.969543 38,000 256 351 64
2019-09-15 13:30:19 GMT 55.584732 0.969543 38,000 256 351 64
2019-09-15 13:30:16 GMT 55.585934 0.977955 38,000 256 351 0
2019-09-15 13:30:13 GMT 55.587112 0.986273 37,975 256 351 0
2019-09-15 13:30:09 GMT 55.588669 0.996843 38,000 256 351 0
2019-09-15 13:30:06 GMT 55.590076 1.006794 38,000 256 351 0
2019-09-15 13:30:03 GMT 55.593147 1.027908 38,000 256 349 0
2019-09-15 13:29:59 GMT 55.593147 1.027908 38,000 256 351 0
2019-09-15 13:29:56 GMT 55.594345 1.036210 38,000 256 350 0
2019-09-15 13:29:53 GMT 55.595242 1.042585 38,000 256 350 0
2019-09-15 13:29:48 GMT 55.597153 1.055632 38,000 256 350 0
2019-09-15 13:29:44 GMT 55.598640 1.066103 38,000 256 350 0
2019-09-15 13:29:41 GMT 55.599609 1.073081 38,000 256 350 0
2019-09-15 13:29:38 GMT 55.601341 1.084986 38,000 256 350 0
2019-09-15 13:29:33 GMT 55.602951 1.096552 38,000 256 349 0
2019-09-15 13:29:30 GMT 55.605286 1.112948 38,000 256 349 0
2019-09-15 13:29:27 GMT 55.605286 1.112948 38,000 256 349 0
2019-09-15 13:29:23 GMT 55.607437 1.127846 38,000 256 349 0
2019-09-15 13:29:20 GMT 55.608185 1.133051 38,000 256 349 0
2019-09-15 13:29:17 GMT 55.610699 1.150732 38,000 256 348 0
2019-09-15 13:29:14 GMT 55.610699 1.150732 38,000 256 348 0
2019-09-15 13:29:11 GMT 55.611740 1.157892 38,000 256 348 0
2019-09-15 13:29:08 GMT 55.613213 1.168327 38,000 256 348 0
2019-09-15 13:29:02 GMT 55.615166 1.181803 38,000 256 348 64
2019-09-15 13:28:59 GMT 55.616470 1.191158 37,975 256 347 0
2019-09-15 13:28:56 GMT 55.617634 1.199141 37,975 256 348 0
2019-09-15 13:28:52 GMT 55.619125 1.209612 38,000 256 347 0
2019-09-15 13:28:49 GMT 55.620392 1.218400 38,000 256 347 0
2019-09-15 13:28:45 GMT 55.621777 1.228323 38,000 256 347 0
2019-09-15 13:28:42 GMT 55.623127 1.237679 38,000 256 347 0
2019-09-15 13:28:38 GMT 55.624649 1.248363 38,000 256 347 0
2019-09-15 13:28:35 GMT 55.625641 1.255188 38,000 256 346 0
2019-09-15 13:28:32 GMT 55.627132 1.265659 38,000 256 346 64
2019-09-15 13:28:28 GMT 55.628540 1.275496 37,975 256 346 0
2019-09-15 13:28:25 GMT 55.629692 1.283684 38,000 256 346 0
2019-09-15 13:28:22 GMT 55.631058 1.293307 38,000 256 346 -64
2019-09-15 13:28:17 GMT 55.632626 1.304541 38,000 256 345 -64
2019-09-15 13:28:14 GMT 55.633804 1.312700 38,000 256 345 0
2019-09-15 13:28:10 GMT 55.635681 1.326100 38,000 256 345 0
2019-09-15 13:28:07 GMT 55.636459 1.331593 38,000 256 345 0
2019-09-15 13:28:03 GMT 55.638676 1.347113 38,000 257 344 0
2019-09-15 13:27:57 GMT 55.640446 1.359644 38,000 257 344 0
2019-09-15 13:27:53 GMT 55.642075 1.371403 38,000 257 344 0
2019-09-15 13:27:50 GMT 55.644424 1.388023 38,000 257 344 0
2019-09-15 13:27:43 GMT 55.645798 1.397753 38,000 257 343 64
2019-09-15 13:27:38 GMT 55.647812 1.412159 38,000 257 343 0
2019-09-15 13:27:35 GMT 55.649094 1.421148 38,000 257 343 0
2019-09-15 13:27:28 GMT 55.651840 1.440457 38,000 257 343 0
2019-09-15 13:27:25 GMT 55.652828 1.447535 38,000 257 343 0
2019-09-15 13:27:22 GMT 55.654266 1.457852 38,000 257 343 0
2019-09-15 13:27:19 GMT 55.656830 1.475997 38,000 257 341 0
2019-09-15 13:27:15 GMT 55.656830 1.475997 38,000 257 341 0
2019-09-15 13:27:12 GMT 55.657608 1.481406 38,000 257 341 0
2019-09-15 13:27:07 GMT 55.659393 1.494141 38,000 257 341 0
2019-09-15 13:27:04 GMT 55.661766 1.511221 38,000 257 341 0
2019-09-15 13:26:57 GMT 55.663673 1.525040 38,000 257 341 0
2019-09-15 13:26:53 GMT 55.665070 1.535090 38,000 257 341 0
2019-09-15 13:26:47 GMT 55.667221 1.550237 38,000 257 341 0
2019-09-15 13:26:44 GMT 55.668182 1.557229 38,000 257 341 0
2019-09-15 13:26:41 GMT 55.671249 1.579451 38,000 257 341 0
2019-09-15 13:26:36 GMT 55.671249 1.579451 38,000 257 340 0
2019-09-15 13:26:33 GMT 55.672379 1.587524 38,000 257 340 0
2019-09-15 13:26:30 GMT 55.673683 1.596794 38,000 257 340 0
2019-09-15 13:26:26 GMT 55.675186 1.607832 38,000 257 340 0
2019-09-15 13:26:22 GMT 55.676384 1.616535 38,000 257 340 0
2019-09-15 13:26:19 GMT 55.677502 1.624346 38,000 257 340 0
2019-09-15 13:26:16 GMT 55.678898 1.634645 38,000 257 340 0
2019-09-15 13:26:13 GMT 55.680084 1.643288 38,000 257 340 0
2019-09-15 13:26:09 GMT 55.681225 1.651382 37,975 257 340 0
2019-09-15 13:26:05 GMT 55.683243 1.666010 37,975 257 340 0
2019-09-15 13:26:02 GMT 55.684113 1.672169 37,975 257 340 0
2019-09-15 13:25:59 GMT 55.685165 1.680076 37,975 257 340 0
2019-09-15 13:25:54 GMT 55.687416 1.696272 37,975 257 341 0
2019-09-15 13:25:48 GMT 55.689148 1.708707 38,000 257 340 0
2019-09-15 13:25:45 GMT 55.690567 1.719027 38,000 257 341 0
2019-09-15 13:25:42 GMT 55.691837 1.728201 38,000 257 341 0
2019-09-15 13:25:37 GMT 55.693222 1.738254 37,975 257 341 0
2019-09-15 13:25:31 GMT 55.695648 1.755565 38,000 257 341 0
2019-09-15 13:25:27 GMT 55.697285 1.767426 38,000 257 341 0
2019-09-15 13:25:23 GMT 55.698807 1.778537 38,000 257 340 0
2019-09-15 13:25:18 GMT 55.702221 1.803474 38,000 257 340 64
2019-09-15 13:25:14 GMT 55.702221 1.803474 38,000 257 340 64
2019-09-15 13:25:10 GMT 55.703522 1.812658 38,000 257 340 64
2019-09-15 13:25:07 GMT 55.704620 1.820734 37,975 257 340 0
2019-09-15 13:25:03 GMT 55.706455 1.834030 37,975 257 340 0
2019-09-15 13:25:00 GMT 55.707108 1.838923 37,975 257 340 0
2019-09-15 13:24:55 GMT 55.708969 1.852445 38,000 257 340 0
2019-09-15 13:24:52 GMT 55.710415 1.863041 38,000 257 340 0
2019-09-15 13:24:49 GMT 55.711121 1.868175 38,000 257 341 0
2019-09-15 13:24:46 GMT 55.712414 1.877632 38,000 257 340 0
2019-09-15 13:24:43 GMT 55.713673 1.886559 38,000 257 341 0
2019-09-15 13:24:40 GMT 55.714741 1.894369 38,000 257 340 0
2019-09-15 13:24:35 GMT 55.716522 1.907376 38,000 257 340 0
2019-09-15 13:24:32 GMT 55.718746 1.923895 38,000 257 340 0
2019-09-15 13:24:29 GMT 55.719818 1.931791 38,000 257 340 0
2019-09-15 13:24:26 GMT 55.719818 1.931791 38,000 257 340 0
2019-09-15 13:24:22 GMT 55.721558 1.944497 38,000 257 340 0
2019-09-15 13:24:15 GMT 55.723846 1.961559 38,000 257 341 0
2019-09-15 13:24:10 GMT 55.725636 1.974878 38,000 257 341 0
2019-09-15 13:24:05 GMT 55.727600 1.989191 38,000 257 341 0
2019-09-15 13:24:02 GMT 55.728699 1.997597 38,000 257 341 0
2019-09-15 13:23:59 GMT 55.729935 2.006503 38,000 257 341 0
2019-09-15 13:23:55 GMT 55.731220 2.015991 37,975 257 341 0
2019-09-15 13:23:52 GMT 55.734154 2.037706 38,000 257 341 0
2019-09-15 13:23:47 GMT 55.734154 2.037706 37,975 257 341 64
2019-09-15 13:23:44 GMT 55.735062 2.044456 38,000 257 341 0
2019-09-15 13:23:40 GMT 55.736755 2.057190 38,000 257 341 0
2019-09-15 13:23:36 GMT 55.738541 2.070507 37,975 257 341 64
2019-09-15 13:23:33 GMT 55.739273 2.075917 38,000 257 341 64
2019-09-15 13:23:30 GMT 55.740253 2.083282 37,975 257 341 0
2019-09-15 13:23:27 GMT 55.741379 2.091481 37,975 257 342 0
2019-09-15 13:23:23 GMT 55.742661 2.101218 37,975 257 342 0
2019-09-15 13:23:20 GMT 55.744255 2.112894 37,975 257 342 0
2019-09-15 13:23:13 GMT 55.746460 2.129517 37,975 257 342 0
2019-09-15 13:23:09 GMT 55.748245 2.142833 37,975 257 342 0
2019-09-15 13:23:04 GMT 55.749619 2.153237 37,975 257 342 0
2019-09-15 13:23:01 GMT 55.751083 2.164140 37,975 257 342 0
2019-09-15 13:22:57 GMT 55.752495 2.174778 37,975 257 341 0
2019-09-15 13:22:53 GMT 55.753941 2.185678 37,975 257 341 0
2019-09-15 13:22:49 GMT 55.755661 2.198764 38,000 257 342 0
2019-09-15 13:22:41 GMT 55.758083 2.217007 38,000 257 341 0
2019-09-15 13:22:38 GMT 55.759060 2.224302 38,000 257 342 0
2019-09-15 13:22:32 GMT 55.761429 2.242293 38,000 257 342 0
2019-09-15 13:22:25 GMT 55.763992 2.261602 38,000 257 340 0
2019-09-15 13:22:21 GMT 55.765045 2.269509 38,000 257 341 0
2019-09-15 13:22:18 GMT 55.766739 2.282243 38,000 257 341 0
2019-09-15 13:22:14 GMT 55.767857 2.290392 38,000 257 341 0
2019-09-15 13:22:11 GMT 55.768974 2.298803 38,000 257 341 0
2019-09-15 13:22:07 GMT 55.770420 2.309704 38,000 257 340 0
2019-09-15 13:22:01 GMT 55.772560 2.325668 38,000 257 340 0
2019-09-15 13:21:57 GMT 55.774292 2.338673 38,000 257 340 0
2019-09-15 13:21:50 GMT 55.776352 2.353821 38,000 257 339 0
2019-09-15 13:21:44 GMT 55.778564 2.370300 38,000 257 338 0
2019-09-15 13:21:40 GMT 55.780148 2.382402 38,000 257 339 0
2019-09-15 13:21:33 GMT 55.782761 2.401844 38,000 257 339 0
2019-09-15 13:21:29 GMT 55.784134 2.412082 38,000 257 338 0
2019-09-15 13:21:26 GMT 55.785233 2.420488 38,000 257 338 0
2019-09-15 13:21:19 GMT 55.787689 2.439394 38,000 257 338 64
2019-09-15 13:21:16 GMT 55.791367 2.467180 38,000 257 338 64
2019-09-15 13:21:08 GMT 55.791367 2.467180 38,000 257 338 0
2019-09-15 13:21:05 GMT 55.792603 2.476918 38,000 257 338 0
2019-09-15 13:20:59 GMT 55.794998 2.495012 38,000 258 338 0
2019-09-15 13:20:55 GMT 55.796253 2.504711 38,000 258 338 0
2019-09-15 13:20:48 GMT 55.798862 2.524967 38,000 258 338 0
2019-09-15 13:20:45 GMT 55.799881 2.532515 38,000 258 338 64
2019-09-15 13:20:36 GMT 55.802856 2.555570 37,975 257 339 0
2019-09-15 13:20:33 GMT 55.803749 2.562304 37,975 257 339 0
2019-09-15 13:20:28 GMT 55.807056 2.587709 37,975 257 339 0
2019-09-15 13:20:24 GMT 55.807056 2.587709 38,000 257 339 0
2019-09-15 13:20:15 GMT 55.810360 2.612944 38,000 257 339 0
2019-09-15 13:20:12 GMT 55.811108 2.618866 38,000 257 339 0
2019-09-15 13:20:05 GMT 55.814072 2.641380 37,975 257 339 0
2019-09-15 13:20:00 GMT 55.815434 2.651997 37,975 258 339 0
2019-09-15 13:19:56 GMT 55.816925 2.663326 38,000 258 339 0
2019-09-15 13:19:52 GMT 55.818192 2.673340 38,000 258 339 0
2019-09-15 13:19:45 GMT 55.820892 2.693981 37,975 258 339 64
2019-09-15 13:19:42 GMT 55.821899 2.701888 37,975 258 339 0
2019-09-15 13:19:35 GMT 55.824371 2.721114 38,000 258 339 0
2019-09-15 13:19:32 GMT 55.825352 2.728729 38,000 258 339 0
2019-09-15 13:19:24 GMT 55.827911 2.749071 38,000 258 339 0
2019-09-15 13:19:21 GMT 55.828983 2.757483 38,000 258 339 0
2019-09-15 13:19:15 GMT 55.831604 2.777793 38,000 258 339 0
2019-09-15 13:19:11 GMT 55.832424 2.784605 38,000 258 339 0
2019-09-15 13:19:04 GMT 55.835037 2.804926 38,000 258 339 0
2019-09-15 13:19:01 GMT 55.835873 2.811642 38,000 258 340 64
2019-09-15 13:18:53 GMT 55.838570 2.832842 38,000 258 338 0
2019-09-15 13:18:50 GMT 55.839615 2.840965 38,000 258 340 64
2019-09-15 13:18:44 GMT 55.843086 2.868290 38,000 258 338 0
2019-09-15 13:18:40 GMT 55.843086 2.868290 38,000 258 338 0
2019-09-15 13:18:34 GMT 55.845474 2.886658 38,000 258 338 0
2019-09-15 13:18:31 GMT 55.846531 2.894812 38,000 258 338 0
2019-09-15 13:18:24 GMT 55.849274 2.916204 37,975 258 338 0
2019-09-15 13:18:21 GMT 55.850327 2.924610 38,000 258 338 0
2019-09-15 13:18:17 GMT 55.851334 2.932434 38,000 258 338 0
2019-09-15 13:18:12 GMT 55.853096 2.945967 38,000 258 338 0
2019-09-15 13:18:09 GMT 55.853897 2.952243 38,000 258 338 0
2019-09-15 13:18:03 GMT 55.856277 2.970886 38,000 258 339 64
2019-09-15 13:17:59 GMT 55.857468 2.980374 38,000 258 340 64
2019-09-15 13:17:52 GMT 55.860870 3.007250 37,975 258 339 0
2019-09-15 13:17:49 GMT 55.860870 3.007250 38,000 258 339 64
2019-09-15 13:17:46 GMT 55.862000 3.016163 38,000 258 339 0
2019-09-15 13:17:42 GMT 55.863373 3.027066 37,975 258 339 0
2019-09-15 13:17:38 GMT 55.864517 3.036055 38,000 258 340 64
2019-09-15 13:17:32 GMT 55.866760 3.053950 37,975 258 340 64
2019-09-15 13:17:29 GMT 55.867901 3.062954 37,975 258 340 0
2019-09-15 13:17:21 GMT 55.870598 3.084669 38,000 258 340 0
2019-09-15 13:17:18 GMT 55.871338 3.090404 38,000 258 340 0
2019-09-15 13:17:10 GMT 55.874130 3.112793 38,000 258 340 0
2019-09-15 13:17:07 GMT 55.877289 3.138345 38,000 258 340 0
2019-09-15 13:17:01 GMT 55.877289 3.138345 38,000 258 339 0
2019-09-15 13:16:58 GMT 55.878387 3.146751 38,000 258 340 0
2019-09-15 13:16:53 GMT 55.880051 3.160114 38,000 258 340 0
2019-09-15 13:16:50 GMT 55.880859 3.166643 38,000 258 338 0
2019-09-15 13:16:47 GMT 55.882095 3.176464 38,000 258 340 0
2019-09-15 13:16:41 GMT 55.884201 3.193359 38,000 258 338 0
2019-09-15 13:16:37 GMT 55.885357 3.202600 38,000 258 339 0
2019-09-15 13:16:31 GMT 55.887726 3.221574 38,000 258 339 0
2019-09-15 13:16:23 GMT 55.890011 3.240108 38,000 258 338 0
2019-09-15 13:16:20 GMT 55.891129 3.249035 38,000 258 338 0
2019-09-15 13:16:17 GMT 55.893456 3.267832 38,000 258 338 0
2019-09-15 13:16:14 GMT 55.893456 3.267832 38,000 258 338 0
2019-09-15 13:16:09 GMT 55.894852 3.279161 38,000 258 338 0
2019-09-15 13:16:05 GMT 55.896202 3.290062 38,000 258 338 0
2019-09-15 13:16:00 GMT 55.898064 3.305254 37,975 258 338 64
2019-09-15 13:15:48 GMT 55.901695 3.334866 37,975 258 338 0
2019-09-15 13:15:41 GMT 55.904442 3.357096 37,975 258 338 64
2019-09-15 13:15:37 GMT 55.905468 3.365507 37,975 258 338 64
2019-09-15 13:15:32 GMT 55.907284 3.379927 37,975 258 338 0
2019-09-15 13:15:28 GMT 55.908630 3.390741 37,975 264 336 64
2019-09-15 13:15:20 GMT 55.911613 3.414860 38,000 261 336 0
2019-09-15 13:15:17 GMT 55.912216 3.420577 38,000 260 337 0
2019-09-15 13:15:08 GMT 55.914265 3.446016 38,000 267 334 128
2019-09-15 13:15:01 GMT 55.914917 3.463856 37,975 269 334 64
2019-09-15 13:14:57 GMT 55.915100 3.473677 38,000 268 334 0
2019-09-15 13:14:54 GMT 55.915291 3.483009 38,000 269 334 64
2019-09-15 13:14:47 GMT 55.915569 3.514853 38,000 270 334 64
2019-09-15 13:14:43 GMT 55.915569 3.514853 38,000 270 334 64
2019-09-15 13:14:36 GMT 55.915604 3.534019 38,000 270 334 0
2019-09-15 13:14:33 GMT 55.915615 3.539743 37,975 270 334 0
2019-09-15 13:14:23 GMT 55.915649 3.595442 37,975 270 334 0
2019-09-15 13:14:10 GMT 55.915661 3.603601 37,975 271 332 0
2019-09-15 13:14:03 GMT 55.915661 3.623085 37,975 270 334 0
2019-09-15 13:14:00 GMT 55.915649 3.631065 37,975 271 332 0
2019-09-15 13:13:54 GMT 55.915649 3.647461 38,000 271 334 0
2019-09-15 13:13:50 GMT 55.915649 3.657865 38,000 270 333 0
2019-09-15 13:13:44 GMT 55.915615 3.677073 38,000 270 333 0
2019-09-15 13:13:41 GMT 55.915615 3.702478 38,000 271 332 0
2019-09-15 13:13:34 GMT 55.915615 3.702478 38,000 271 333 0
2019-09-15 13:13:29 GMT 55.915569 3.715010 38,000 271 332 0
2019-09-15 13:13:24 GMT 55.915512 3.740678 38,000 270 332 0
2019-09-15 13:13:16 GMT 55.915524 3.751917 38,000 271 332 0
2019-09-15 13:13:13 GMT 55.915512 3.760071 38,000 271 332 0
2019-09-15 13:13:06 GMT 55.915512 3.779463 37,975 271 332 0
2019-09-15 13:13:02 GMT 55.915478 3.790369 37,975 271 332 0
2019-09-15 13:12:59 GMT 55.915466 3.799106 38,000 271 332 0
2019-09-15 13:12:52 GMT 55.915478 3.818178 37,975 270 332 64
2019-09-15 13:12:46 GMT 55.915478 3.834314 37,975 270 332 0
2019-09-15 13:12:43 GMT 55.915466 3.842718 37,975 270 332 0
2019-09-15 13:12:37 GMT 55.915466 3.862360 38,000 270 332 0
2019-09-15 13:12:32 GMT 55.915478 3.871136 38,000 271 332 0
2019-09-15 13:12:25 GMT 55.915428 3.890448 38,000 271 332 0
2019-09-15 13:12:22 GMT 55.915382 3.898945 38,000 271 332 0
2019-09-15 13:12:11 GMT 55.915329 3.929693 38,000 271 331 0
2019-09-15 13:12:03 GMT 55.915241 3.949242 38,000 271 331 0
2019-09-15 13:11:59 GMT 55.915104 3.984604 38,000 271 331 0
2019-09-15 13:11:51 GMT 55.915104 3.984604 38,000 271 331 0
2019-09-15 13:11:47 GMT 55.915054 4.009344 37,975 271 331 0
2019-09-15 13:11:38 GMT 55.915009 4.019914 38,000 271 330 0
2019-09-15 13:11:35 GMT 55.915009 4.026146 38,000 271 331 0
2019-09-15 13:11:27 GMT 55.914963 4.048376 38,000 271 330 0
2019-09-15 13:11:19 GMT 55.914871 4.070864 37,975 271 330 0
2019-09-15 13:11:13 GMT 55.914780 4.090160 37,975 271 330 0
2019-09-15 13:11:03 GMT 55.914688 4.113964 38,000 271 330 0
2019-09-15 13:10:57 GMT 55.914639 4.130774 38,000 271 329 0
2019-09-15 13:10:47 GMT 55.914543 4.157553 38,000 271 329 0
2019-09-15 13:10:38 GMT 55.914406 4.182959 38,000 271 329 0
2019-09-15 13:10:29 GMT 55.914310 4.204245 38,000 271 329 0
2019-09-15 13:10:21 GMT 55.914185 4.226157 38,000 271 328 0
2019-09-15 13:10:14 GMT 55.914078 4.246044 38,000 271 328 0
2019-09-15 13:10:06 GMT 55.914001 4.267106 38,000 271 328 0
2019-09-15 13:09:55 GMT 55.913895 4.297028 38,000 271 328 64
2019-09-15 13:09:50 GMT 55.913799 4.310503 37,975 271 328 0
2019-09-15 13:09:44 GMT 55.913754 4.326382 37,975 271 328 0
2019-09-15 13:09:40 GMT 55.913681 4.336354 37,975 271 328 0
2019-09-15 13:09:34 GMT 55.913589 4.352833 38,000 271 328 0
2019-09-15 13:09:29 GMT 55.913498 4.368980 38,000 271 328 0
2019-09-15 13:09:24 GMT 55.913406 4.379550 38,000 271 328 0
2019-09-15 13:09:17 GMT 55.913242 4.400024 38,000 271 328 0
2019-09-15 13:09:14 GMT 55.913197 4.408865 38,000 271 328 0
2019-09-15 13:09:04 GMT 55.912994 4.434981 38,000 271 328 0
2019-09-15 13:09:01 GMT 55.912964 4.441738 38,000 271 328 0
2019-09-15 13:08:54 GMT 55.912823 4.462938 38,000 271 328 0
2019-09-15 13:08:51 GMT 55.912777 4.468346 38,000 271 328 0
2019-09-15 13:08:45 GMT 55.912682 4.484482 38,000 271 328 0
2019-09-15 13:08:40 GMT 55.912582 4.499817 38,000 271 328 0
2019-09-15 13:08:34 GMT 55.912449 4.515724 38,000 271 328 0
2019-09-15 13:08:29 GMT 55.912357 4.529371 38,000 271 328 0
2019-09-15 13:08:23 GMT 55.912262 4.546093 38,000 271 328 0
2019-09-15 13:08:18 GMT 55.912170 4.558494 38,000 271 328 0
2019-09-15 13:08:13 GMT 55.911938 4.586191 38,000 271 328 0
2019-09-15 13:08:08 GMT 55.911797 4.603443 38,000 271 328 0
2019-09-15 13:08:01 GMT 55.911797 4.603443 38,000 271 328 0
2019-09-15 13:07:52 GMT 55.911564 4.630308 38,000 271 328 0
2019-09-15 13:07:45 GMT 55.911438 4.648132 38,000 271 328 0
2019-09-15 13:07:40 GMT 55.911285 4.667730 38,000 271 328 0
2019-09-15 13:07:37 GMT 55.911285 4.667730 38,000 271 328 0
2019-09-15 13:07:33 GMT 55.911194 4.680691 38,000 271 328 0
2019-09-15 13:07:30 GMT 55.911163 4.687417 38,000 271 328 0
2019-09-15 13:07:23 GMT 55.911007 4.706869 38,000 271 328 0
2019-09-15 13:07:16 GMT 55.910820 4.728413 38,000 271 328 0
2019-09-15 13:07:09 GMT 55.910728 4.744034 38,000 271 328 0
2019-09-15 13:06:56 GMT 55.910248 4.793951 38,000 272 329 0
2019-09-15 13:06:47 GMT 55.910122 4.803944 38,000 272 329 0
2019-09-15 13:06:41 GMT 55.909698 4.846802 38,000 272 329 0
2019-09-15 13:06:32 GMT 55.909698 4.846802 38,000 272 329 0
2019-09-15 13:06:20 GMT 55.909424 4.876213 38,000 272 329 0
2019-09-15 13:06:10 GMT 55.909145 4.903765 38,000 272 329 0
2019-09-15 13:06:07 GMT 55.909058 4.912137 38,000 272 329 0
2019-09-15 13:06:01 GMT 55.908875 4.927784 38,000 272 329 0
2019-09-15 13:05:48 GMT 55.908493 4.965048 38,000 272 329 0
2019-09-15 13:05:45 GMT 55.908325 4.978055 38,000 272 329 0
2019-09-15 13:05:42 GMT 55.908325 4.978055 38,000 272 329 0
2019-09-15 13:05:37 GMT 55.908188 4.993120 38,000 272 329 0
2019-09-15 13:05:32 GMT 55.908005 5.007186 38,000 272 329 0
2019-09-15 13:05:28 GMT 55.907887 5.017920 38,000 272 329 0
2019-09-15 13:05:15 GMT 55.907547 5.052546 37,975 272 329 0
2019-09-15 13:05:12 GMT 55.907501 5.059787 37,975 272 329 0
2019-09-15 13:05:05 GMT 55.907284 5.079546 38,000 272 329 0
2019-09-15 13:04:58 GMT 55.907089 5.099487 38,000 272 329 0
2019-09-15 13:04:46 GMT 55.906723 5.130615 38,000 272 329 0
2019-09-15 13:04:37 GMT 55.906311 5.163325 38,000 272 329 0
2019-09-15 13:04:28 GMT 55.906071 5.179796 38,000 272 330 0
2019-09-15 13:04:23 GMT 55.905899 5.192538 38,000 272 330 0
2019-09-15 13:04:15 GMT 55.905579 5.216092 38,000 272 329 0
2019-09-15 13:04:11 GMT 55.905441 5.225580 38,000 272 330 0
2019-09-15 13:04:04 GMT 55.905212 5.243974 37,975 272 330 0
2019-09-15 13:04:00 GMT 55.905029 5.254794 37,975 272 330 0
2019-09-15 13:03:53 GMT 55.904800 5.273521 38,000 272 330 -64
2019-09-15 13:03:45 GMT 55.904350 5.306225 38,000 272 329 0
2019-09-15 13:03:32 GMT 55.904072 5.331459 38,000 272 330 0
2019-09-15 13:03:20 GMT 55.903652 5.363131 38,000 272 330 0
2019-09-15 13:03:12 GMT 55.903278 5.386047 37,975 272 330 0
2019-09-15 13:03:07 GMT 55.902954 5.408278 38,000 272 330 0
2019-09-15 13:03:04 GMT 55.902954 5.408278 38,000 272 330 0
2019-09-15 13:03:00 GMT 55.902786 5.419339 37,975 272 330 0
2019-09-15 13:02:54 GMT 55.902557 5.432656 38,000 272 330 0
2019-09-15 13:02:48 GMT 55.902302 5.449133 38,000 272 330 0
2019-09-15 13:02:38 GMT 55.901825 5.478349 38,000 272 330 0
2019-09-15 13:02:35 GMT 55.901695 5.488358 38,000 272 330 0
2019-09-15 13:02:30 GMT 55.901508 5.498657 38,000 272 330 0
2019-09-15 13:02:26 GMT 55.901367 5.508395 38,000 272 330 0
2019-09-15 13:02:23 GMT 55.901184 5.519514 38,000 272 329 0
2019-09-15 13:02:16 GMT 55.900955 5.535694 38,000 272 329 0
2019-09-15 13:02:09 GMT 55.900635 5.555420 38,000 272 329 0
2019-09-15 13:02:06 GMT 55.900497 5.563826 38,000 272 329 0
2019-09-15 13:01:58 GMT 55.900162 5.584402 38,000 272 329 0
2019-09-15 13:01:55 GMT 55.899994 5.595703 38,000 272 329 0
2019-09-15 13:01:49 GMT 55.899719 5.612765 37,975 272 330 0
2019-09-15 13:01:44 GMT 55.899555 5.623884 38,000 272 330 0
2019-09-15 13:01:38 GMT 55.899323 5.640106 37,975 272 330 0
2019-09-15 13:01:30 GMT 55.898994 5.661221 37,975 272 330 0
2019-09-15 13:01:27 GMT 55.898849 5.669861 37,975 272 330 0
2019-09-15 13:01:22 GMT 55.898670 5.680962 37,975 272 331 0
2019-09-15 13:01:18 GMT 55.898529 5.692583 37,975 272 330 0
2019-09-15 13:01:14 GMT 55.898163 5.713723 37,975 272 330 0
2019-09-15 13:01:11 GMT 55.898163 5.713723 37,975 272 330 0
2019-09-15 13:01:04 GMT 55.897831 5.735121 38,000 272 330 0
2019-09-15 13:01:01 GMT 55.897751 5.740190 38,000 272 330 0
2019-09-15 13:00:54 GMT 55.897430 5.757002 38,000 272 330 0
2019-09-15 13:00:51 GMT 55.897228 5.769453 38,000 272 330 0
2019-09-15 13:00:45 GMT 55.897018 5.782720 38,000 272 330 0
2019-09-15 13:00:41 GMT 55.896835 5.793790 38,000 272 330 0
2019-09-15 13:00:30 GMT 55.896297 5.823526 38,000 272 330 0
2019-09-15 13:00:26 GMT 55.895966 5.841730 37,975 272 330 0
2019-09-15 13:00:19 GMT 55.895737 5.853567 38,000 272 330 0
2019-09-15 13:00:15 GMT 55.895599 5.863094 38,000 272 330 0
2019-09-15 13:00:09 GMT 55.895271 5.880175 38,000 272 330 0
2019-09-15 13:00:05 GMT 55.895050 5.892917 38,000 272 330 0
2019-09-15 12:59:56 GMT 55.894619 5.914850 38,000 272 331 0
2019-09-15 12:59:46 GMT 55.894043 5.944686 38,000 273 331 0
2019-09-15 12:59:43 GMT 55.893875 5.952873 37,975 272 331 64
2019-09-15 12:59:32 GMT 55.893356 5.981057 37,975 273 331 0
2019-09-15 12:59:29 GMT 55.893177 5.989780 37,975 273 331 0
2019-09-15 12:59:18 GMT 55.892616 6.018534 37,975 273 331 0
2019-09-15 12:59:15 GMT 55.892433 6.026430 37,975 273 331 -64
2019-09-15 12:59:11 GMT 55.892212 6.037820 37,975 273 331 -64
2019-09-15 12:59:04 GMT 55.891846 6.055797 38,000 273 325 896
2019-09-15 12:58:59 GMT 55.891571 6.070362 38,000 273 330 -64
2019-09-15 12:58:54 GMT 55.891296 6.082847 38,000 273 329 0
2019-09-15 12:58:51 GMT 55.890701 6.113642 38,000 273 327 0
2019-09-15 12:58:43 GMT 55.890701 6.113642 38,000 273 328 0
2019-09-15 12:58:40 GMT 55.890564 6.120051 38,000 273 328 0
2019-09-15 12:58:37 GMT 55.890335 6.130870 38,000 273 327 0
2019-09-15 12:58:34 GMT 55.890244 6.136197 38,000 273 327 0
2019-09-15 12:58:30 GMT 55.890011 6.148310 38,000 273 327 0
2019-09-15 12:58:21 GMT 55.889511 6.173817 38,000 272 326 0
2019-09-15 12:58:16 GMT 55.889267 6.186161 38,000 272 326 0
2019-09-15 12:58:02 GMT 55.888474 6.224184 38,000 273 326 0
2019-09-15 12:57:59 GMT 55.888367 6.229747 37,975 273 325 -64
2019-09-15 12:57:55 GMT 55.888103 6.242638 38,000 273 326 0
2019-09-15 12:57:47 GMT 55.887680 6.263705 38,000 273 324 832
2019-09-15 12:57:44 GMT 55.887497 6.271196 37,975 273 326 0
2019-09-15 12:57:35 GMT 55.886948 6.296331 37,975 273 325 -128
2019-09-15 12:57:27 GMT 55.886490 6.316306 38,000 273 324 832
2019-09-15 12:57:22 GMT 55.885849 6.345853 37,700 273 326 896
2019-09-15 12:57:16 GMT 55.885849 6.345853 37,675 273 325 896
2019-09-15 12:57:13 GMT 55.885666 6.354925 37,800 273 325 896
2019-09-15 12:57:05 GMT 55.885216 6.374645 37,700 273 326 896
2019-09-15 12:57:01 GMT 55.884937 6.386662 37,625 273 326 896
2019-09-15 12:56:58 GMT 55.884846 6.392498 37,600 273 326 896
2019-09-15 12:56:52 GMT 55.884472 6.409149 37,525 273 327 832
2019-09-15 12:56:48 GMT 55.884201 6.420926 37,450 273 327 832
2019-09-15 12:56:45 GMT 55.884064 6.427335 37,425 273 328 832
2019-09-15 12:56:42 GMT 55.883820 6.438932 37,375 273 328 832
2019-09-15 12:56:38 GMT 55.883587 6.447773 37,325 273 328 832
2019-09-15 12:56:30 GMT 55.883076 6.470690 37,200 273 340 832
2019-09-15 12:56:25 GMT 55.882828 6.483099 37,125 273 330 1280
2019-09-15 12:56:21 GMT 55.882507 6.496416 37,000 273 335 1472
2019-09-15 12:56:17 GMT 55.882324 6.505321 36,950 273 331 1344
2019-09-15 12:56:13 GMT 55.882050 6.515642 36,875 273 333 1472
2019-09-15 12:56:10 GMT 55.881866 6.524131 36,850 273 332 1408
2019-09-15 12:56:03 GMT 55.881493 6.541843 36,650 273 334 1472
2019-09-15 12:56:00 GMT 55.881260 6.550341 36,450 273 335 1408
2019-09-15 12:55:56 GMT 55.880859 6.568493 36,400 273 336 1600
2019-09-15 12:55:50 GMT 55.880562 6.579266 36,300 273 338 1472
2019-09-15 12:55:43 GMT 55.880127 6.597873 36,025 273 340 256
2019-09-15 12:55:38 GMT 55.879818 6.610079 36,050 273 340 704
2019-09-15 12:55:35 GMT 55.879578 6.618430 36,000 273 340 128
2019-09-15 12:55:32 GMT 55.879307 6.628790 36,000 273 340 0
2019-09-15 12:55:27 GMT 55.878979 6.641579 36,000 273 340 0
2019-09-15 12:55:22 GMT 55.878605 6.656685 36,000 273 340 0
2019-09-15 12:55:18 GMT 55.878021 6.680353 36,000 273 340 0
2019-09-15 12:55:13 GMT 55.878021 6.680353 36,000 273 340 0
2019-09-15 12:55:07 GMT 55.877518 6.700661 36,000 273 339 0
2019-09-15 12:55:01 GMT 55.876877 6.726046 36,000 273 339 0
2019-09-15 12:54:57 GMT 55.876511 6.741915 36,000 273 339 0
2019-09-15 12:54:51 GMT 55.876511 6.741915 36,000 273 339 0
2019-09-15 12:54:46 GMT 55.876099 6.758839 36,000 273 339 0
2019-09-15 12:54:41 GMT 55.875824 6.769992 36,000 273 339 64
2019-09-15 12:54:35 GMT 55.875393 6.786976 35,975 273 340 0
2019-09-15 12:54:30 GMT 55.875046 6.799788 35,975 273 340 0
2019-09-15 12:54:26 GMT 55.874790 6.810665 35,975 273 340 0
2019-09-15 12:54:22 GMT 55.874462 6.824312 35,975 273 340 0
2019-09-15 12:54:16 GMT 55.873997 6.841049 35,975 273 340 0
2019-09-15 12:54:13 GMT 55.873810 6.848810 35,975 273 340 0
2019-09-15 12:54:08 GMT 55.873486 6.861391 36,000 273 340 0
2019-09-15 12:54:05 GMT 55.873253 6.869974 36,000 273 340 0
2019-09-15 12:54:02 GMT 55.873020 6.878643 36,000 273 340 0
2019-09-15 12:53:59 GMT 55.872803 6.887845 36,000 273 340 0
2019-09-15 12:53:55 GMT 55.872509 6.897869 36,000 273 340 0
2019-09-15 12:53:50 GMT 55.872135 6.912632 36,000 273 340 0
2019-09-15 12:53:47 GMT 55.871887 6.920971 36,000 273 340 0
2019-09-15 12:53:43 GMT 55.871578 6.931858 36,000 273 340 0
2019-09-15 12:53:38 GMT 55.870785 6.961126 36,000 273 340 64
2019-09-15 12:53:33 GMT 55.870785 6.961126 36,000 273 340 64
2019-09-15 12:53:29 GMT 55.870461 6.974258 36,000 273 340 0
2019-09-15 12:53:25 GMT 55.870239 6.982644 36,000 273 340 -64
2019-09-15 12:53:18 GMT 55.869717 7.001896 36,000 273 340 64
2019-09-15 12:53:15 GMT 55.869461 7.010526 36,000 273 340 64
2019-09-15 12:53:10 GMT 55.868923 7.031164 35,975 273 340 0
2019-09-15 12:53:07 GMT 55.868923 7.031164 36,000 273 340 0
2019-09-15 12:53:04 GMT 55.868683 7.039573 36,000 273 340 -64
2019-09-15 12:53:00 GMT 55.868366 7.050991 36,000 273 340 0
2019-09-15 12:52:57 GMT 55.868134 7.059382 35,975 273 340 0
2019-09-15 12:52:54 GMT 55.867805 7.070303 36,000 273 340 64
2019-09-15 12:52:49 GMT 55.867493 7.081687 36,000 273 340 0
2019-09-15 12:52:46 GMT 55.867249 7.089529 36,000 274 339 0
2019-09-15 12:52:43 GMT 55.866966 7.100086 36,000 273 340 0
2019-09-15 12:52:40 GMT 55.866714 7.108987 36,000 273 340 0
2019-09-15 12:52:37 GMT 55.866531 7.115728 36,000 273 340 0
2019-09-15 12:52:34 GMT 55.866257 7.125716 36,000 273 340 0
2019-09-15 12:52:26 GMT 55.865711 7.145233 36,000 273 340 0
2019-09-15 12:52:23 GMT 55.865341 7.156677 36,000 273 339 0
2019-09-15 12:52:16 GMT 55.864883 7.173906 36,000 273 339 0
2019-09-15 12:52:13 GMT 55.864594 7.182827 36,000 273 339 0
2019-09-15 12:52:07 GMT 55.864128 7.199736 36,000 273 339 0
2019-09-15 12:52:02 GMT 55.863693 7.214189 36,000 274 339 0
2019-09-15 12:51:57 GMT 55.863327 7.228421 36,000 273 339 0
2019-09-15 12:51:54 GMT 55.863152 7.234240 35,975 274 339 0
2019-09-15 12:51:51 GMT 55.862823 7.244485 36,000 274 339 0
2019-09-15 12:51:48 GMT 55.862411 7.259216 36,000 274 339 0
2019-09-15 12:51:41 GMT 55.862091 7.270369 35,975 274 339 0
2019-09-15 12:51:35 GMT 55.861568 7.287283 36,000 274 339 0
2019-09-15 12:51:31 GMT 55.861240 7.298355 36,000 274 339 0
2019-09-15 12:51:28 GMT 55.860916 7.309513 36,000 274 339 0
2019-09-15 12:51:24 GMT 55.860626 7.320307 36,000 274 339 0
2019-09-15 12:51:21 GMT 55.860451 7.326164 36,000 274 338 0
2019-09-15 12:51:16 GMT 55.859528 7.355596 36,000 274 339 0
2019-09-15 12:51:11 GMT 55.859528 7.355596 36,000 274 339 0
2019-09-15 12:51:04 GMT 55.858913 7.376719 36,000 274 339 0
2019-09-15 12:50:59 GMT 55.858589 7.387877 36,000 274 339 0
2019-09-15 12:50:54 GMT 55.858078 7.403927 36,000 274 339 0
2019-09-15 12:50:50 GMT 55.857742 7.414773 35,975 274 339 0
2019-09-15 12:50:43 GMT 55.857193 7.432251 36,000 274 339 0
2019-09-15 12:50:40 GMT 55.856915 7.442293 35,975 274 339 0
2019-09-15 12:50:32 GMT 55.856140 7.465876 35,975 274 339 0
2019-09-15 12:50:29 GMT 55.855984 7.471733 35,975 274 339 0
2019-09-15 12:50:21 GMT 55.855145 7.497826 36,000 274 338 0
2019-09-15 12:50:18 GMT 55.855003 7.503319 36,000 274 338 -64
2019-09-15 12:50:13 GMT 55.854309 7.525801 36,000 274 338 0
2019-09-15 12:50:10 GMT 55.854309 7.525801 36,000 274 338 -64
2019-09-15 12:50:07 GMT 55.854073 7.533617 36,000 274 338 0
2019-09-15 12:50:04 GMT 55.853794 7.542200 36,000 274 338 0
2019-09-15 12:49:59 GMT 55.853420 7.553787 36,000 274 338 0
2019-09-15 12:49:56 GMT 55.853165 7.562089 36,000 274 338 64
2019-09-15 12:49:53 GMT 55.852798 7.572077 36,000 274 338 0
2019-09-15 12:49:49 GMT 55.852432 7.584229 35,975 274 338 -64
2019-09-15 12:49:45 GMT 55.852165 7.592583 36,000 274 338 0
2019-09-15 12:49:42 GMT 55.851837 7.601956 36,000 274 338 0
2019-09-15 12:49:39 GMT 55.851517 7.611361 36,000 274 338 0
2019-09-15 12:49:36 GMT 55.851280 7.619190 35,975 274 338 0
2019-09-15 12:49:33 GMT 55.851013 7.627175 35,975 274 338 0
2019-09-15 12:49:29 GMT 55.850647 7.638578 36,000 274 338 -64
2019-09-15 12:49:24 GMT 55.850117 7.654037 36,000 274 338 0
2019-09-15 12:49:19 GMT 55.849731 7.666293 36,000 274 338 0
2019-09-15 12:49:15 GMT 55.849365 7.677363 36,000 274 338 0
2019-09-15 12:49:11 GMT 55.848907 7.691512 36,000 274 338 0
2019-09-15 12:49:06 GMT 55.848488 7.703991 36,000 274 338 0
2019-09-15 12:49:02 GMT 55.848255 7.711458 36,000 274 338 0
2019-09-15 12:48:58 GMT 55.847672 7.727800 36,000 274 338 -64
2019-09-15 12:48:55 GMT 55.847488 7.733376 36,000 274 338 -64
2019-09-15 12:48:52 GMT 55.847137 7.743645 36,000 274 338 64
2019-09-15 12:48:49 GMT 55.846985 7.749190 36,000 274 338 0
2019-09-15 12:48:45 GMT 55.846626 7.758837 36,000 274 338 0
2019-09-15 12:48:42 GMT 55.846390 7.767168 36,000 274 338 -64
2019-09-15 12:48:38 GMT 55.845974 7.778578 36,000 274 338 0
2019-09-15 12:48:35 GMT 55.845612 7.789307 35,975 274 338 0
2019-09-15 12:48:31 GMT 55.845367 7.797632 36,000 274 338 0
2019-09-15 12:48:28 GMT 55.844925 7.810946 36,000 274 338 0
2019-09-15 12:48:25 GMT 55.844715 7.816257 36,000 274 338 0
2019-09-15 12:48:21 GMT 55.844009 7.837330 36,000 274 338 0
2019-09-15 12:48:17 GMT 55.844009 7.837330 36,000 274 338 0
2019-09-15 12:48:12 GMT 55.843506 7.851963 36,000 274 338 0
2019-09-15 12:48:09 GMT 55.843273 7.858658 36,000 274 338 0
2019-09-15 12:48:06 GMT 55.842995 7.866726 36,000 274 338 64
2019-09-15 12:48:03 GMT 55.842712 7.875309 36,000 274 338 0
2019-09-15 12:48:00 GMT 55.842041 7.894676 36,000 274 338 0
2019-09-15 12:47:56 GMT 55.842041 7.894676 36,000 274 338 0
2019-09-15 12:47:51 GMT 55.841171 7.919312 36,000 274 337 0
2019-09-15 12:47:48 GMT 55.841171 7.919312 36,000 274 337 0
2019-09-15 12:47:45 GMT 55.840576 7.937539 36,000 274 337 0
2019-09-15 12:47:41 GMT 55.840576 7.937539 36,000 274 337 0
2019-09-15 12:47:38 GMT 55.840015 7.953844 36,000 274 337 0
2019-09-15 12:47:35 GMT 55.839478 7.968500 36,000 274 337 -64
2019-09-15 12:47:30 GMT 55.839020 7.980652 36,000 274 338 0
2019-09-15 12:47:25 GMT 55.839020 7.980652 36,000 274 337 0
2019-09-15 12:47:19 GMT 55.838470 7.996715 36,000 274 337 0
2019-09-15 12:47:16 GMT 55.838013 8.009699 36,000 274 337 0
2019-09-15 12:47:08 GMT 55.837326 8.029258 36,000 274 337 0
2019-09-15 12:47:04 GMT 55.836941 8.039160 36,000 274 337 0
2019-09-15 12:47:00 GMT 55.836571 8.050232 35,975 274 337 0
2019-09-15 12:46:57 GMT 55.836136 8.061551 36,000 274 337 0
2019-09-15 12:46:54 GMT 55.835541 8.078114 35,975 274 337 0
2019-09-15 12:46:51 GMT 55.835541 8.078114 35,975 274 341 0
2019-09-15 12:46:46 GMT 55.835129 8.089183 36,000 274 337 0
2019-09-15 12:46:43 GMT 55.834808 8.097174 36,000 274 337 0
2019-09-15 12:46:38 GMT 55.834030 8.118231 36,000 274 338 0
2019-09-15 12:46:35 GMT 55.834030 8.118231 36,000 274 338 0
2019-09-15 12:46:32 GMT 55.833729 8.127050 36,000 274 338 0
2019-09-15 12:46:29 GMT 55.833023 8.146446 36,000 274 338 0
2019-09-15 12:46:26 GMT 55.833023 8.146446 36,000 274 338 0
2019-09-15 12:46:22 GMT 55.832611 8.156932 36,000 274 339 0
2019-09-15 12:46:18 GMT 55.832241 8.167734 36,000 274 339 0
2019-09-15 12:46:14 GMT 55.831730 8.180780 35,975 274 338 0
2019-09-15 12:46:07 GMT 55.830734 8.207952 36,000 274 339 0
2019-09-15 12:46:03 GMT 55.830734 8.207952 36,000 274 339 0
2019-09-15 12:45:57 GMT 55.830093 8.225431 36,000 274 339 0
2019-09-15 12:45:53 GMT 55.829681 8.236583 36,000 274 339 0
2019-09-15 12:45:47 GMT 55.829075 8.252964 36,000 275 342 0
2019-09-15 12:45:43 GMT 55.828655 8.264637 36,000 274 339 0
2019-09-15 12:45:35 GMT 55.827530 8.294345 35,975 274 340 0
2019-09-15 12:45:32 GMT 55.826839 8.312702 36,000 274 340 0
2019-09-15 12:45:26 GMT 55.826839 8.312702 36,000 274 340 0
2019-09-15 12:45:23 GMT 55.826515 8.320770 35,975 274 340 0
2019-09-15 12:45:20 GMT 55.826111 8.331132 36,000 274 340 0
2019-09-15 12:45:16 GMT 55.825722 8.341112 36,000 274 341 0
2019-09-15 12:45:12 GMT 55.825333 8.350858 35,975 274 341 0
2019-09-15 12:45:05 GMT 55.824608 8.370466 36,000 274 341 0
2019-09-15 12:45:02 GMT 55.824234 8.379905 36,000 274 341 0
2019-09-15 12:44:56 GMT 55.823627 8.395872 36,000 274 341 0
2019-09-15 12:44:53 GMT 55.822998 8.411532 35,975 275 341 0
2019-09-15 12:44:44 GMT 55.821991 8.437750 35,975 275 342 0
2019-09-15 12:44:41 GMT 55.821991 8.437750 36,000 275 342 0
2019-09-15 12:44:34 GMT 55.820789 8.468571 35,975 275 342 0
2019-09-15 12:44:29 GMT 55.820789 8.468571 35,975 275 342 0
2019-09-15 12:44:25 GMT 55.820251 8.481778 35,975 275 342 0
2019-09-15 12:44:19 GMT 55.819626 8.498268 35,975 275 343 0
2019-09-15 12:44:12 GMT 55.818878 8.516235 36,000 275 343 0
2019-09-15 12:44:09 GMT 55.817993 8.538952 36,000 275 343 0
2019-09-15 12:44:04 GMT 55.817993 8.538952 36,000 275 344 0
2019-09-15 12:44:00 GMT 55.817413 8.553606 36,000 275 343 0
2019-09-15 12:43:54 GMT 55.816818 8.567921 36,000 275 343 0
2019-09-15 12:43:51 GMT 55.816498 8.576078 36,000 275 343 0
2019-09-15 12:43:48 GMT 55.816177 8.584234 36,000 275 343 0
2019-09-15 12:43:44 GMT 55.815716 8.595772 36,000 275 343 0
2019-09-15 12:43:40 GMT 55.814968 8.614655 36,000 275 344 0
2019-09-15 12:43:33 GMT 55.814457 8.627615 36,000 275 344 0
2019-09-15 12:43:29 GMT 55.814026 8.638583 36,000 275 344 0
2019-09-15 12:43:26 GMT 55.813660 8.647572 36,000 275 344 0
2019-09-15 12:43:23 GMT 55.813202 8.658558 36,000 275 344 0
2019-09-15 12:43:19 GMT 55.812790 8.668130 36,000 275 345 0
2019-09-15 12:43:16 GMT 55.812454 8.676624 36,000 275 345 0
2019-09-15 12:43:13 GMT 55.812149 8.684193 36,000 275 345 0
2019-09-15 12:43:08 GMT 55.811462 8.700589 35,975 275 345 0
2019-09-15 12:43:03 GMT 55.810867 8.714489 35,975 275 345 0
2019-09-15 12:42:58 GMT 55.810364 8.726640 35,975 275 351 0
2019-09-15 12:42:55 GMT 55.809986 8.736277 35,975 275 346 0
2019-09-15 12:42:51 GMT 55.809616 8.744431 35,975 275 346 0
2019-09-15 12:42:47 GMT 55.809105 8.757820 35,975 275 348 0
2019-09-15 12:42:43 GMT 55.808624 8.769171 36,000 275 347 0
2019-09-15 12:42:40 GMT 55.808311 8.776531 36,000 275 348 0
2019-09-15 12:42:37 GMT 55.807941 8.785372 35,975 275 351 0
2019-09-15 12:42:33 GMT 55.807426 8.797560 36,000 275 348 0
2019-09-15 12:42:29 GMT 55.806976 8.808372 36,000 275 348 0
2019-09-15 12:42:25 GMT 55.806171 8.827772 35,975 275 348 0
2019-09-15 12:42:18 GMT 55.805565 8.841763 35,975 275 349 0
2019-09-15 12:42:15 GMT 55.805237 8.849154 36,000 275 349 0
2019-09-15 12:42:12 GMT 55.804962 8.856562 36,000 275 350 0
2019-09-15 12:42:08 GMT 55.804413 8.868880 36,000 275 350 0
2019-09-15 12:42:05 GMT 55.804092 8.876870 36,000 275 350 0
2019-09-15 12:41:59 GMT 55.802681 8.909225 36,000 275 351 0
2019-09-15 12:41:55 GMT 55.802681 8.909225 36,000 275 351 0
2019-09-15 12:41:52 GMT 55.802307 8.917819 36,000 275 351 0
2019-09-15 12:41:48 GMT 55.801804 8.929221 36,000 275 351 0
2019-09-15 12:41:45 GMT 55.801529 8.934964 36,000 275 351 0
2019-09-15 12:41:42 GMT 55.801163 8.943870 36,000 275 351 0
2019-09-15 12:41:37 GMT 55.800522 8.958435 36,000 275 351 0
2019-09-15 12:41:34 GMT 55.800110 8.967923 36,000 275 351 0
2019-09-15 12:41:31 GMT 55.799793 8.974543 36,000 275 351 0
2019-09-15 12:41:28 GMT 55.799377 8.984569 36,000 275 351 0
2019-09-15 12:41:24 GMT 55.798817 8.996859 36,000 275 352 0
2019-09-15 12:41:21 GMT 55.798584 9.002609 36,000 275 351 0
2019-09-15 12:41:15 GMT 55.797638 9.023271 36,000 275 352 0
2019-09-15 12:41:10 GMT 55.797001 9.037628 36,000 275 352 0
2019-09-15 12:41:07 GMT 55.796814 9.042177 36,000 275 352 0
2019-09-15 12:41:04 GMT 55.796356 9.051985 35,975 275 352 0
2019-09-15 12:41:00 GMT 55.795898 9.062306 36,000 275 352 0
2019-09-15 12:40:55 GMT 55.795277 9.076681 36,000 275 352 0
2019-09-15 12:40:52 GMT 55.794846 9.086442 36,000 275 352 0
2019-09-15 12:40:49 GMT 55.794487 9.093933 36,000 275 352 0
2019-09-15 12:40:46 GMT 55.793926 9.106550 35,975 275 352 0
2019-09-15 12:40:43 GMT 55.793289 9.120900 35,975 275 352 0
2019-09-15 12:40:37 GMT 55.792877 9.130721 35,975 275 352 0
2019-09-15 12:40:34 GMT 55.792007 9.150529 36,000 275 353 0
2019-09-15 12:40:30 GMT 55.792007 9.150529 35,975 275 353 0
2019-09-15 12:40:25 GMT 55.791275 9.166926 36,000 275 353 0
2019-09-15 12:40:22 GMT 55.791046 9.172169 36,000 275 353 0
2019-09-15 12:40:19 GMT 55.790577 9.182167 36,000 275 353 0
2019-09-15 12:40:15 GMT 55.790016 9.195471 36,000 275 353 0
2019-09-15 12:40:12 GMT 55.789764 9.200967 36,000 275 353 0
2019-09-15 12:40:09 GMT 55.789307 9.210704 35,975 275 353 0
2019-09-15 12:40:03 GMT 55.788483 9.229764 36,000 275 353 0
2019-09-15 12:39:58 GMT 55.787933 9.241250 36,000 275 353 0
2019-09-15 12:39:55 GMT 55.787552 9.249887 36,000 275 353 0
2019-09-15 12:39:51 GMT 55.787037 9.260874 35,975 275 353 0
2019-09-15 12:39:48 GMT 55.786560 9.270963 35,975 275 353 0
2019-09-15 12:39:45 GMT 55.786194 9.279036 36,000 275 353 0
2019-09-15 12:39:42 GMT 55.785736 9.289112 36,000 275 353 0
2019-09-15 12:39:38 GMT 55.785221 9.300013 35,975 275 353 0
2019-09-15 12:39:35 GMT 55.784821 9.308666 36,000 275 353 0
2019-09-15 12:39:32 GMT 55.784386 9.317951 36,000 275 353 -64
2019-09-15 12:39:27 GMT 55.783733 9.332027 36,000 275 353 0
2019-09-15 12:39:24 GMT 55.783360 9.340096 36,000 275 353 0
2019-09-15 12:39:21 GMT 55.782486 9.358521 36,000 275 353 0
2019-09-15 12:39:18 GMT 55.782486 9.358521 36,000 275 352 0
2019-09-15 12:39:14 GMT 55.782074 9.367426 36,000 275 352 0
2019-09-15 12:39:11 GMT 55.781570 9.377747 36,000 275 352 0
2019-09-15 12:39:04 GMT 55.780659 9.397001 36,000 275 352 0
2019-09-15 12:39:01 GMT 55.780197 9.407043 36,000 275 351 0
2019-09-15 12:38:57 GMT 55.779636 9.418287 36,000 275 351 0
2019-09-15 12:38:54 GMT 55.779217 9.427128 36,000 275 351 0
2019-09-15 12:38:50 GMT 55.778751 9.437170 36,000 275 351 0
2019-09-15 12:38:47 GMT 55.778320 9.446411 36,000 275 351 0
2019-09-15 12:38:44 GMT 55.777912 9.455280 36,000 275 351 0
2019-09-15 12:38:41 GMT 55.777401 9.465837 36,000 275 351 0
2019-09-15 12:38:38 GMT 55.777168 9.470472 36,000 275 351 0
2019-09-15 12:38:34 GMT 55.776566 9.483862 36,000 275 351 0
2019-09-15 12:38:30 GMT 55.775940 9.496765 36,000 275 351 0
2019-09-15 12:38:25 GMT 55.774933 9.518488 36,000 275 350 0
2019-09-15 12:38:19 GMT 55.774155 9.534801 36,000 275 350 0
2019-09-15 12:38:16 GMT 55.774155 9.534801 36,000 275 347 0
2019-09-15 12:38:13 GMT 55.773743 9.543041 36,000 275 350 0
2019-09-15 12:38:09 GMT 55.773212 9.555016 36,000 275 349 0
2019-09-15 12:38:02 GMT 55.771862 9.583254 36,000 275 348 0
2019-09-15 12:37:59 GMT 55.771862 9.583254 36,000 275 348 0
2019-09-15 12:37:56 GMT 55.771301 9.594841 36,000 275 348 0
2019-09-15 12:37:52 GMT 55.770950 9.601968 36,000 275 347 0
2019-09-15 12:37:48 GMT 55.770325 9.615011 36,000 275 347 0
2019-09-15 12:37:45 GMT 55.769955 9.623251 36,000 275 347 64
2019-09-15 12:37:41 GMT 55.769440 9.633121 36,000 275 347 64
2019-09-15 12:37:37 GMT 55.768890 9.644165 36,000 276 347 64
2019-09-15 12:37:34 GMT 55.768341 9.655484 35,975 276 347 0
2019-09-15 12:37:31 GMT 55.768021 9.662309 35,975 276 347 0
2019-09-15 12:37:27 GMT 55.767441 9.673290 35,975 276 347 0
2019-09-15 12:37:23 GMT 55.766788 9.686594 35,975 276 347 0
2019-09-15 12:37:20 GMT 55.766415 9.693375 35,975 276 347 0
2019-09-15 12:37:17 GMT 55.765858 9.704704 35,975 276 347 0
2019-09-15 12:37:12 GMT 55.765182 9.718323 35,975 276 347 0
2019-09-15 12:37:08 GMT 55.764313 9.735884 35,975 276 348 0
2019-09-15 12:37:05 GMT 55.763714 9.747534 35,975 276 348 0
2019-09-15 12:37:01 GMT 55.763714 9.747534 35,975 276 348 0
2019-09-15 12:36:58 GMT 55.763260 9.756276 35,975 276 348 0
2019-09-15 12:36:55 GMT 55.762878 9.764528 35,975 276 348 0
2019-09-15 12:36:51 GMT 55.762226 9.776802 36,000 276 348 0
2019-09-15 12:36:46 GMT 55.761433 9.792938 36,000 276 349 64
2019-09-15 12:36:43 GMT 55.761204 9.797487 36,000 276 349 0
2019-09-15 12:36:40 GMT 55.760788 9.806047 36,000 276 349 0
2019-09-15 12:36:37 GMT 55.760330 9.814869 36,000 276 349 0
2019-09-15 12:36:34 GMT 55.759872 9.823692 36,000 276 349 0
2019-09-15 12:36:31 GMT 55.759323 9.835094 36,000 276 349 0
2019-09-15 12:36:27 GMT 55.758736 9.846153 36,000 276 349 0
2019-09-15 12:36:20 GMT 55.757851 9.863834 36,000 276 349 0
2019-09-15 12:36:16 GMT 55.756779 9.884863 36,000 276 349 320
2019-09-15 12:36:10 GMT 55.755894 9.902029 35,750 276 350 832
2019-09-15 12:36:04 GMT 55.755341 9.913080 35,950 276 349 896
2019-09-15 12:36:00 GMT 55.753922 9.940713 35,750 276 350 832
2019-09-15 12:35:53 GMT 55.753922 9.940713 35,750 276 352 1152
2019-09-15 12:35:50 GMT 55.753426 9.950695 35,750 276 351 832
2019-09-15 12:35:47 GMT 55.752869 9.961596 35,700 276 351 832
2019-09-15 12:35:43 GMT 55.752403 9.970436 35,675 276 351 896
2019-09-15 12:35:39 GMT 55.751846 9.981337 35,600 276 352 896
2019-09-15 12:35:36 GMT 55.751404 9.989901 35,575 276 352 896
2019-09-15 12:35:32 GMT 55.750820 10.000820 35,525 276 352 896
2019-09-15 12:35:28 GMT 55.749756 10.020946 35,375 276 352 1472
2019-09-15 12:35:25 GMT 55.749146 10.032749 35,375 276 352 1472
2019-09-15 12:35:21 GMT 55.749146 10.032749 35,350 276 352 1216
2019-09-15 12:35:18 GMT 55.748447 10.046225 35,250 276 353 1536
2019-09-15 12:35:15 GMT 55.748108 10.053073 35,175 276 353 1536
2019-09-15 12:35:11 GMT 55.747700 10.060301 35,025 276 353 1536
2019-09-15 12:35:07 GMT 55.746597 10.081621 34,950 276 353 1664
2019-09-15 12:35:04 GMT 55.746597 10.081621 34,850 276 354 1664
2019-09-15 12:35:01 GMT 55.746071 10.091114 34,825 276 354 1600
2019-09-15 12:34:57 GMT 55.745041 10.110751 34,625 276 358 1664
2019-09-15 12:34:54 GMT 55.745041 10.110751 34,575 276 355 1600
2019-09-15 12:34:51 GMT 55.744400 10.122070 34,550 276 355 1600
2019-09-15 12:34:47 GMT 55.743393 10.141463 34,400 276 356 1472
2019-09-15 12:34:39 GMT 55.742752 10.153032 34,300 276 357 1728
2019-09-15 12:34:36 GMT 55.742302 10.161753 34,075 276 357 1664
2019-09-15 12:34:33 GMT 55.741882 10.169927 34,125 276 357 1728
2019-09-15 12:34:29 GMT 55.741230 10.181837 34,000 276 357 1664
2019-09-15 12:34:26 GMT 55.740673 10.192308 33,950 276 358 1664
2019-09-15 12:34:21 GMT 55.739868 10.207464 33,775 276 358 1664
2019-09-15 12:34:18 GMT 55.739277 10.217972 33,725 276 358 1664
2019-09-15 12:34:12 GMT 55.737946 10.242587 33,475 276 359 1664
2019-09-15 12:34:08 GMT 55.737213 10.256320 33,275 276 360 1600
2019-09-15 12:34:04 GMT 55.737213 10.256320 33,325 276 360 1664
2019-09-15 12:34:01 GMT 55.736713 10.265179 33,250 276 360 1600
2019-09-15 12:33:58 GMT 55.736298 10.273418 33,175 276 361 1600
2019-09-15 12:33:53 GMT 55.735458 10.288353 33,050 276 361 1664
2019-09-15 12:33:50 GMT 55.734924 10.298101 33,000 276 362 1600
2019-09-15 12:33:47 GMT 55.734295 10.309553 32,850 276 362 1536
2019-09-15 12:33:43 GMT 55.733688 10.321398 32,675 276 362 1600
2019-09-15 12:33:38 GMT 55.733036 10.333157 32,650 276 363 1664
2019-09-15 12:33:34 GMT 55.732201 10.348263 32,500 276 363 1600
2019-09-15 12:33:31 GMT 55.731873 10.354185 32,350 276 363 1600
2019-09-15 12:33:28 GMT 55.730759 10.374340 32,350 276 363 1664
2019-09-15 12:33:25 GMT 55.730759 10.374340 31,900 276 364 1664
2019-09-15 12:33:22 GMT 55.729706 10.393899 32,125 276 365 1728
2019-09-15 12:33:18 GMT 55.729706 10.393899 31,975 276 365 1664
2019-09-15 12:33:14 GMT 55.729126 10.404825 32,025 276 365 1728
2019-09-15 12:33:11 GMT 55.728615 10.413494 31,925 276 365 1728
2019-09-15 12:33:07 GMT 55.728012 10.425110 30,575 276 372 1728
2019-09-15 12:33:04 GMT 55.727509 10.434348 31,575 276 367 1792
2019-09-15 12:33:01 GMT 55.727097 10.441506 30,900 276 368 1792
2019-09-15 12:32:58 GMT 55.726639 10.450162 31,550 276 368 1792
2019-09-15 12:32:53 GMT 55.725677 10.466891 31,425 276 368 1728
2019-09-15 12:32:50 GMT 55.725174 10.476213 31,275 276 368 1664
2019-09-15 12:32:47 GMT 55.724609 10.486450 31,225 276 369 1792
2019-09-15 12:32:44 GMT 55.724098 10.495806 31,150 276 369 1792
2019-09-15 12:32:41 GMT 55.723663 10.503596 30,900 276 370 1600
2019-09-15 12:32:37 GMT 55.723030 10.514774 30,975 276 370 1600
2019-09-15 12:32:34 GMT 55.722515 10.523787 30,950 276 370 1536
2019-09-15 12:32:31 GMT 55.721867 10.535288 30,800 276 371 1792
2019-09-15 12:32:28 GMT 55.721352 10.544643 30,700 276 371 1856
2019-09-15 12:32:24 GMT 55.720840 10.553398 30,625 276 372 1728
2019-09-15 12:32:21 GMT 55.720375 10.562239 30,525 276 373 1728
2019-09-15 12:32:17 GMT 55.719498 10.577337 30,225 276 373 1728
2019-09-15 12:32:13 GMT 55.718994 10.586159 30,325 276 373 1728
2019-09-15 12:32:09 GMT 55.718307 10.598311 30,275 276 374 1792
2019-09-15 12:32:06 GMT 55.717621 10.611128 30,100 276 374 1792
2019-09-15 12:32:02 GMT 55.716885 10.623608 30,025 276 374 1856
2019-09-15 12:31:59 GMT 55.716557 10.629702 29,500 276 377 1792
2019-09-15 12:31:56 GMT 55.715488 10.648069 29,725 276 376 1792
2019-09-15 12:31:49 GMT 55.714737 10.660900 29,650 276 375 1728
2019-09-15 12:31:43 GMT 55.713684 10.679294 29,450 276 376 1792
2019-09-15 12:31:38 GMT 55.712723 10.695523 29,300 276 377 1792
2019-09-15 12:31:33 GMT 55.711857 10.710812 29,150 276 378 1792
2019-09-15 12:31:30 GMT 55.711250 10.721626 29,025 276 378 1792
2019-09-15 12:31:22 GMT 55.709976 10.743380 28,750 276 378 1856
2019-09-15 12:31:19 GMT 55.709473 10.752286 28,675 276 378 1856
2019-09-15 12:31:15 GMT 55.708694 10.765520 28,450 276 379 1728
2019-09-15 12:31:12 GMT 55.708191 10.774092 28,325 276 378 1792
2019-09-15 12:31:06 GMT 55.707184 10.791071 28,400 276 379 1728
2019-09-15 12:31:02 GMT 55.706318 10.805826 28,200 277 379 1856
2019-09-15 12:30:58 GMT 55.705582 10.817788 28,025 276 379 1984
2019-09-15 12:30:55 GMT 55.704987 10.828608 28,050 276 379 1984
2019-09-15 12:30:51 GMT 55.704391 10.838096 27,750 276 379 1792
2019-09-15 12:30:46 GMT 55.703476 10.853826 27,775 276 379 1664
2019-09-15 12:30:43 GMT 55.702469 10.871138 27,550 276 379 1664
2019-09-15 12:30:40 GMT 55.702469 10.871138 27,650 276 379 1664
2019-09-15 12:30:35 GMT 55.701096 10.894526 27,200 277 379 1984
2019-09-15 12:30:32 GMT 55.700916 10.897579 27,325 277 379 1984
2019-09-15 12:30:29 GMT 55.700405 10.905647 27,300 277 380 1920
2019-09-15 12:30:26 GMT 55.699860 10.915500 27,025 277 380 2048
2019-09-15 12:30:23 GMT 55.699310 10.924488 27,150 277 380 2240
2019-09-15 12:30:20 GMT 55.698578 10.936806 26,975 277 381 2176
2019-09-15 12:30:14 GMT 55.697472 10.955000 26,700 277 381 1856
2019-09-15 12:30:10 GMT 55.696930 10.964272 26,550 277 381 1600
2019-09-15 12:30:03 GMT 55.695374 10.990573 26,450 277 380 1600
2019-09-15 12:30:00 GMT 55.694958 10.997143 26,400 277 380 1600
2019-09-15 12:29:56 GMT 55.694214 11.010103 26,300 277 379 1408
2019-09-15 12:29:50 GMT 55.692955 11.030703 26,125 277 378 1792
2019-09-15 12:29:43 GMT 55.691887 11.048555 25,850 277 378 1792
2019-09-15 12:29:39 GMT 55.691189 11.059885 25,575 277 377 1984
2019-09-15 12:29:35 GMT 55.690350 11.073704 25,725 277 378 1728
2019-09-15 12:29:31 GMT 55.689697 11.084456 25,625 277 377 1920
2019-09-15 12:29:28 GMT 55.688858 11.097994 25,450 277 377 1984
2019-09-15 12:29:25 GMT 55.688393 11.105289 25,425 277 377 1984
2019-09-15 12:29:19 GMT 55.687180 11.125488 25,225 277 377 1792
2019-09-15 12:29:14 GMT 55.685741 11.148806 25,050 277 376 2048
2019-09-15 12:29:11 GMT 55.685741 11.148806 24,975 277 376 2048
2019-09-15 12:29:08 GMT 55.685181 11.157904 24,900 277 376 2048
2019-09-15 12:29:03 GMT 55.684479 11.169267 24,650 277 375 1408
2019-09-15 12:28:59 GMT 55.683041 11.192408 24,650 277 375 1408
2019-09-15 12:28:53 GMT 55.682575 11.200304 24,375 277 370 1984
2019-09-15 12:28:49 GMT 55.681690 11.213951 24,375 277 372 1984
2019-09-15 12:28:46 GMT 55.681084 11.223907 24,325 277 372 2048
2019-09-15 12:28:43 GMT 55.680588 11.231523 24,225 277 372 2048
2019-09-15 12:28:40 GMT 55.679970 11.241503 24,125 277 372 2048
2019-09-15 12:28:36 GMT 55.679222 11.253862 24,050 277 372 2048
2019-09-15 12:28:33 GMT 55.677841 11.275635 23,725 277 371 1792
2019-09-15 12:28:29 GMT 55.677841 11.275635 23,775 277 371 1792
2019-09-15 12:28:26 GMT 55.677521 11.281045 23,500 277 370 2048
2019-09-15 12:28:22 GMT 55.676521 11.296434 23,600 277 370 1984
2019-09-15 12:28:19 GMT 55.676010 11.305098 23,350 277 369 1856
2019-09-15 12:28:16 GMT 55.675461 11.313837 23,400 277 370 1984
2019-09-15 12:28:12 GMT 55.674683 11.326155 23,250 277 369 1792
2019-09-15 12:28:09 GMT 55.674133 11.334561 23,100 277 368 1856
2019-09-15 12:28:05 GMT 55.673447 11.345631 23,000 277 368 1920
2019-09-15 12:28:02 GMT 55.671913 11.369820 22,775 277 367 1920
2019-09-15 12:27:58 GMT 55.671913 11.369820 22,800 277 367 1984
2019-09-15 12:27:55 GMT 55.671448 11.376944 22,725 277 366 1856
2019-09-15 12:27:52 GMT 55.670792 11.387329 22,675 277 364 2240
2019-09-15 12:27:49 GMT 55.669540 11.407242 22,500 277 365 2112
2019-09-15 12:27:45 GMT 55.669540 11.407242 22,325 277 364 2240
2019-09-15 12:27:40 GMT 55.668701 11.420288 22,325 277 364 2240
2019-09-15 12:27:37 GMT 55.667999 11.431524 22,125 277 364 2112
2019-09-15 12:27:34 GMT 55.667351 11.441231 22,025 277 364 1792
2019-09-15 12:27:30 GMT 55.666809 11.450084 21,800 277 360 1536
2019-09-15 12:27:27 GMT 55.666168 11.459822 21,225 277 362 1472
2019-09-15 12:27:24 GMT 55.665585 11.468954 21,750 277 360 1536
2019-09-15 12:27:21 GMT 55.664886 11.480047 21,725 277 342 2496
2019-09-15 12:27:17 GMT 55.664337 11.488204 21,600 277 358 1856
2019-09-15 12:27:14 GMT 55.663696 11.498691 21,525 277 357 1792
2019-09-15 12:27:10 GMT 55.663010 11.509344 21,375 277 356 1472
2019-09-15 12:27:07 GMT 55.662506 11.516585 21,300 277 354 1536
2019-09-15 12:27:03 GMT 55.661728 11.528986 21,225 277 353 1728
2019-09-15 12:27:00 GMT 55.661114 11.538134 21,150 277 352 1856
2019-09-15 12:26:55 GMT 55.660080 11.554454 21,000 277 351 1856
2019-09-15 12:26:49 GMT 55.658112 11.584750 20,625 277 348 2368
2019-09-15 12:26:43 GMT 55.657856 11.588173 20,575 277 348 2304
2019-09-15 12:26:39 GMT 55.657295 11.596928 20,475 277 348 2240
2019-09-15 12:26:35 GMT 55.655994 11.617184 20,225 277 346 1984
2019-09-15 12:26:32 GMT 55.655994 11.617184 20,225 277 346 2048
2019-09-15 12:26:29 GMT 55.655479 11.625080 20,150 277 346 2176
2019-09-15 12:26:25 GMT 55.654724 11.636269 19,950 277 345 2304
2019-09-15 12:26:22 GMT 55.654133 11.645851 19,925 277 345 2304
2019-09-15 12:26:19 GMT 55.652710 11.667397 19,500 277 344 2560
2019-09-15 12:26:14 GMT 55.652710 11.667397 19,525 277 344 2560
2019-09-15 12:26:11 GMT 55.651524 11.685505 19,400 277 344 2368
2019-09-15 12:26:08 GMT 55.651524 11.685505 19,325 277 344 2368
2019-09-15 12:26:03 GMT 55.650826 11.696405 19,075 277 343 2176
2019-09-15 12:26:00 GMT 55.650269 11.705074 19,050 277 343 2304
2019-09-15 12:25:56 GMT 55.649597 11.715920 18,675 277 342 2496
2019-09-15 12:25:53 GMT 55.648964 11.725931 18,800 277 342 2688
2019-09-15 12:25:49 GMT 55.648220 11.737261 18,500 277 341 2240
2019-09-15 12:25:46 GMT 55.647079 11.755288 18,300 277 340 2496
2019-09-15 12:25:42 GMT 55.647079 11.755288 18,300 277 340 2496
2019-09-15 12:25:39 GMT 55.646439 11.765192 18,275 277 339 2688
2019-09-15 12:25:35 GMT 55.645752 11.775970 17,975 277 339 2624
2019-09-15 12:25:32 GMT 55.645203 11.784502 17,975 277 339 2624
2019-09-15 12:25:29 GMT 55.644032 11.802921 17,625 277 338 3008
2019-09-15 12:25:22 GMT 55.643463 11.811385 17,475 277 339 3136
2019-09-15 12:25:19 GMT 55.642960 11.819401 17,225 277 339 2816
2019-09-15 12:25:16 GMT 55.642399 11.827641 17,225 277 339 2816
2019-09-15 12:25:12 GMT 55.641563 11.840601 17,000 277 339 2048
2019-09-15 12:25:09 GMT 55.641144 11.847725 16,875 277 340 2560
2019-09-15 12:25:05 GMT 55.640350 11.860074 16,775 277 338 2048
2019-09-15 12:25:01 GMT 55.639526 11.872642 16,625 277 339 2112
2019-09-15 12:24:58 GMT 55.639114 11.878718 16,550 277 340 2240
2019-09-15 12:24:50 GMT 55.637787 11.899442 16,175 277 339 2752
2019-09-15 12:24:46 GMT 55.636955 11.912355 16,075 277 338 2880
2019-09-15 12:24:41 GMT 55.635635 11.932650 15,575 277 334 2752
2019-09-15 12:24:34 GMT 55.634953 11.942568 15,625 277 335 2240
2019-09-15 12:24:30 GMT 55.634113 11.955013 15,075 277 334 3264
2019-09-15 12:24:27 GMT 55.633369 11.965828 15,225 277 334 3520
2019-09-15 12:24:24 GMT 55.633118 11.969937 15,125 277 334 3328
2019-09-15 12:24:20 GMT 55.632252 11.982651 14,825 277 334 2688
2019-09-15 12:24:17 GMT 55.631790 11.989496 14,775 277 334 2624
2019-09-15 12:24:14 GMT 55.631287 11.997320 14,650 277 333 2752
2019-09-15 12:24:10 GMT 55.630508 12.008972 14,450 277 332 3072
2019-09-15 12:24:07 GMT 55.629959 12.017045 14,050 278 332 2816
2019-09-15 12:24:04 GMT 55.629318 12.026117 14,125 278 331 2880
2019-09-15 12:23:59 GMT 55.628387 12.038269 13,950 280 331 2624
2019-09-15 12:23:56 GMT 55.627441 12.047757 13,775 282 330 2624
2019-09-15 12:23:53 GMT 55.626755 12.053583 13,675 283 329 2880
2019-09-15 12:23:49 GMT 55.625271 12.064533 13,500 287 329 3392
2019-09-15 12:23:46 GMT 55.623966 12.072859 13,300 287 329 3392
2019-09-15 12:23:43 GMT 55.622269 12.082298 13,100 289 328 2944
2019-09-15 12:23:40 GMT 55.621124 12.088373 12,900 289 327 2624
2019-09-15 12:23:36 GMT 55.619171 12.098780 12,800 289 325 3328
2019-09-15 12:23:33 GMT 55.615074 12.120752 12,550 289 325 3712
2019-09-15 12:23:28 GMT 55.615074 12.120752 12,325 289 325 3584
2019-09-15 12:23:25 GMT 55.613632 12.128305 12,150 289 325 3456
2019-09-15 12:23:22 GMT 55.612701 12.133627 12,025 289 325 3328
2019-09-15 12:23:19 GMT 55.611237 12.141141 11,875 288 324 2816
2019-09-15 12:23:15 GMT 55.609257 12.151995 11,675 288 322 1344
2019-09-15 12:23:12 GMT 55.608139 12.158260 11,575 288 317 960
2019-09-15 12:23:07 GMT 55.605789 12.170937 11,525 288 312 832
2019-09-15 12:23:03 GMT 55.603668 12.182894 11,450 288 308 896
2019-09-15 12:22:58 GMT 55.601898 12.192743 11,375 288 301 896
2019-09-15 12:22:54 GMT 55.600159 12.202565 11,250 288 292 1024
2019-09-15 12:22:51 GMT 55.599339 12.207184 11,200 288 290 1024
2019-09-15 12:22:47 GMT 55.596085 12.225952 11,175 287 285 1024
2019-09-15 12:22:44 GMT 55.596085 12.225952 11,150 287 281 960
2019-09-15 12:22:39 GMT 55.592606 12.246011 11,025 288 275 896
2019-09-15 12:22:35 GMT 55.592606 12.246011 10,975 286 233 3008
2019-09-15 12:22:31 GMT 55.591141 12.254333 10,950 288 266 1024
2019-09-15 12:22:27 GMT 55.590076 12.260571 10,875 287 260 1024
2019-09-15 12:22:23 GMT 55.588348 12.270230 10,800 287 253 768
2019-09-15 12:22:20 GMT 55.587204 12.277222 10,750 287 246 832
2019-09-15 12:22:17 GMT 55.586723 12.280140 10,725 286 244 1152
2019-09-15 12:22:12 GMT 55.584908 12.291555 10,600 286 238 1920
2019-09-15 12:22:09 GMT 55.583977 12.297306 10,475 286 233 2816
2019-09-15 12:22:04 GMT 55.582672 12.305374 9,850 286 232 3712
2019-09-15 12:22:00 GMT 55.581554 12.312498 9,850 286 232 3712
2019-09-15 12:21:57 GMT 55.580578 12.318506 9,825 286 232 3712
2019-09-15 12:21:52 GMT 55.579193 12.327243 9,550 286 231 3328
2019-09-15 12:21:49 GMT 55.578392 12.332153 9,450 286 232 3456
2019-09-15 12:21:46 GMT 55.577553 12.337475 9,225 286 231 3328
2019-09-15 12:21:42 GMT 55.575943 12.347468 9,025 286 231 3328
2019-09-15 12:21:38 GMT 55.574478 12.356529 8,475 286 228 3520
2019-09-15 12:21:31 GMT 55.573196 12.364613 8,275 286 227 3584
2019-09-15 12:21:28 GMT 55.570633 12.380510 8,000 286 227 3648
2019-09-15 12:21:22 GMT 55.570633 12.380510 7,575 286 227 3776
2019-09-15 12:21:19 GMT 55.569637 12.387085 7,625 286 227 3776
2019-09-15 12:21:15 GMT 55.568573 12.393660 7,400 286 227 3776
2019-09-15 12:21:11 GMT 55.567497 12.400646 7,200 286 227 3776
2019-09-15 12:21:08 GMT 55.565598 12.412803 6,750 286 227 3584
2019-09-15 12:21:05 GMT 55.565598 12.412803 6,750 286 226 3648
2019-09-15 12:21:01 GMT 55.564407 12.420044 6,500 286 227 4160
2019-09-15 12:20:56 GMT 55.563126 12.428450 6,150 286 227 4096
2019-09-15 12:20:52 GMT 55.562073 12.434859 5,600 286 227 2880
2019-09-15 12:20:49 GMT 55.561073 12.441072 5,725 286 228 3008
2019-09-15 12:20:46 GMT 55.560375 12.445793 5,575 286 227 2880
2019-09-15 12:20:40 GMT 55.558868 12.455000 5,350 286 223 3776
2019-09-15 12:20:37 GMT 55.557533 12.463989 5,000 285 222 3840
2019-09-15 12:20:31 GMT 55.556488 12.471397 4,725 285 222 3520
2019-09-15 12:20:28 GMT 55.555618 12.477223 4,200 282 220 2752
2019-09-15 12:20:24 GMT 55.553329 12.495200 4,200 283 222 2688
2019-09-15 12:20:19 GMT 55.553329 12.495200 4,000 281 217 3776
2019-09-15 12:20:15 GMT 55.552925 12.499180 3,850 280 216 4096
2019-09-15 12:20:11 GMT 55.552231 12.507435 3,300 267 220 2240
2019-09-15 12:20:08 GMT 55.552040 12.518749 3,250 267 220 2240
2019-09-15 12:20:05 GMT 55.552040 12.518749 3,200 265 219 2304
2019-09-15 12:19:56 GMT 55.553375 12.532987 2,825 249 213 2624
2019-09-15 12:19:53 GMT 55.554836 12.539778 2,650 245 213 2560
2019-09-15 12:19:46 GMT 55.557907 12.548884 2,300 225 215 1600
2019-09-15 12:19:41 GMT 55.565414 12.561285 2,050 220 205 2304
2019-09-15 12:19:34 GMT 55.566940 12.563553 1,975 220 201 2304
2019-09-15 12:19:31 GMT 55.568390 12.565613 1,875 220 201 2240
2019-09-15 12:19:26 GMT 55.571960 12.570856 1,550 222 184 1024
2019-09-15 12:19:23 GMT 55.574806 12.575054 1,600 221 189 1152
2019-09-15 12:19:14 GMT 55.579880 12.582925 1,475 222 172 1408
2019-09-15 12:19:09 GMT 55.582722 12.587414 1,150 223 163 2880
2019-09-15 12:19:06 GMT 55.584961 12.590998 1,225 223 163 2816
2019-09-15 12:19:03 GMT 55.586197 12.592995 875 224 162 0
2019-09-15 12:18:59 GMT 55.588760 12.597240 0 224 162 0
2019-09-15 12:18:55 GMT 55.590729 12.600546 800 223 161 2176
2019-09-15 12:18:47 GMT 55.594894 12.607394 475 223 162 1792

Making use of Plane Finder data

You are free to use the raw flight data, aircraft information and images provided in this report for your own purposes provided the data is correctly attributed to Plane Finder. We ask that you please credit Plane Finder and link to planefinder.net in close proximity to the content.

Optionally one of the following logos (no smaller then 150x24px) can be used and must link to planefinder.net

Embedding the Plane Finder map

You are welcome to embed the Plane Finder playback map on your website to offer visitors a more interactive experience. We suggest using the following HTML code:

<iframe src="//planefinder.net/data/report/D83502-EI-FHM-7700-squawk-2019-09-15/map" width="800" height="600" seamless="seamless"></iframe>

Where our data comes from

Plane Finder has a global network of data feeds and antenna radars that receive data broadcast directly from aircraft. The primary technologies used are ADS-B and MLAT. We also show feeds from the FAA and a FLARM glider feed.

Click here to find out more about the Plane Finder network.

How we collect our data